<?xml version="1.0" encoding="UTF-8" standalone="no" ?>
<gpx xmlns="http://www.topografix.com/GPX/1/1" xmlns:xsi="http://www.w3.org/2001/XMLSchema-instance" xsi:schemaLocation="http://www.topografix.com/GPX/1/1 http://www.topografix.com/GPX/1/1/gpx.xsd" version="1.1" creator="VisuGPX - https://www.visugpx.com">
  <metadata>
    <name>2023-09-12 J8</name>
    <desc><![CDATA[Stevenson J8 Chasserades-LesAlpiers 16.3km]]></desc>
  </metadata>
  <wpt lat="44.55313" lon="3.8367">
    <ele>1168.8</ele>
    <name><![CDATA[0001416]]></name>
    <type><![CDATA[Point de départ]]></type>
  </wpt>
  <wpt lat="44.51297" lon="3.7781">
    <ele>1256.4</ele>
    <name><![CDATA[0001417]]></name>
    <desc><![CDATA[<p><br /><h3>Nom: Segment: 1</h3><br />Heure de départ: 09/12/2023 08:24<br/>Heure d'arrivée: 09/12/2023 12:40<br/>Distance: 13,1km (04:16)<br/>Temps déplacement: 03:16<br/>Vitesse moyenne: 3,06 km/h<br/>Vitesse moyenne mouv.: 3,99 km/h<br/>Vitesse Max.: 7,1 km/h<br/>Altitude minimale: 1095 m<br/>Altitude maximale: 1415 m<br/>Vitesse de montée: 215,4 m/h<br/>Vitesse de descente: -291,5 m/h<br/>Gain d'altitude: 549 m<br/>Perte d'altitude: -456 m<br/>Temps de montée: 02:32<br/>Temps de descente: 01:33<br/></p>]]></desc>
    <type><![CDATA[Point d'arrivée]]></type>
  </wpt>
  <wpt lat="44.51283" lon="3.77795">
    <ele>1254.3</ele>
    <name><![CDATA[0001418]]></name>
    <type><![CDATA[Point de départ]]></type>
  </wpt>
  <wpt lat="44.50064" lon="3.7561">
    <ele>1169</ele>
    <name><![CDATA[0001419]]></name>
    <desc><![CDATA[<p><br /><h3>Nom: Segment: 2</h3><br />Heure de départ: 09/12/2023 13:26<br/>Heure d'arrivée: 09/12/2023 14:17<br/>Distance: 3,2km (00:51)<br/>Temps déplacement: 00:46<br/>Vitesse moyenne: 3,74 km/h<br/>Vitesse moyenne mouv.: 4,04 km/h<br/>Vitesse Max.: 5,67 km/h<br/>Altitude minimale: 1145 m<br/>Altitude maximale: 1267 m<br/>Vitesse de montée: 263,8 m/h<br/>Vitesse de descente: -298,6 m/h<br/>Gain d'altitude: 71 m<br/>Perte d'altitude: -162 m<br/>Temps de montée: 00:16<br/>Temps de descente: 00:32<br/></p>]]></desc>
    <type><![CDATA[Point d'arrivée]]></type>
  </wpt>
  <trk>
    <name><![CDATA[2023-09-12 08:24]]></name>
    <desc><![CDATA[<p>Heure de départ: 09/12/2023 08:24<br/>Heure d'arrivée: 09/12/2023 14:17<br/>Distance: 16,3 km (05:07)<br/>Temps déplacement: 04:02<br/>Vitesse moyenne: 3,18 km/h<br/>Vitesse moyenne mouv.: 4,03 km/h<br/>Vitesse Max.: 7,1 km/h<br/>Altitude minimale: 1095 m<br/>Altitude maximale: 1415 m<br/>Vitesse de montée: 196 m/h<br/>Vitesse de descente: -278,6 m/h<br/>Gain d'altitude: 588 m<br/>Perte d'altitude: -579 m<br/>Temps de montée: 03:00<br/>Temps de descente: 02:04<br/></p><hr align="center" width="480" style="height: 2px; width: 517px"/>]]></desc>
    <extensions>
      <line xmlns="http://www.topografix.com/GPX/gpx_style/0/2">
        <color>0000FF</color>
        <width>4</width>
      </line>
    </extensions>
    <trkseg>
      <trkpt lat="44.55313" lon="3.8367">
        <ele>1179.69</ele>
        <time>2023-09-12T06:24:40Z</time>
      </trkpt>
      <trkpt lat="44.55313" lon="3.83697">
        <ele>1179.69</ele>
        <time>2023-09-12T06:25:16Z</time>
      </trkpt>
      <trkpt lat="44.55332" lon="3.83702">
        <ele>1180.69</ele>
        <time>2023-09-12T06:25:44Z</time>
      </trkpt>
      <trkpt lat="44.55349" lon="3.83686">
        <ele>1180.69</ele>
        <time>2023-09-12T06:26:04Z</time>
      </trkpt>
      <trkpt lat="44.5534" lon="3.83659">
        <ele>1179.69</ele>
        <time>2023-09-12T06:26:24Z</time>
      </trkpt>
      <trkpt lat="44.55334" lon="3.83635">
        <ele>1178.69</ele>
        <time>2023-09-12T06:26:40Z</time>
      </trkpt>
      <trkpt lat="44.55326" lon="3.83612">
        <ele>1179.69</ele>
        <time>2023-09-12T06:26:56Z</time>
      </trkpt>
      <trkpt lat="44.55318" lon="3.83589">
        <ele>1175.69</ele>
        <time>2023-09-12T06:27:12Z</time>
      </trkpt>
      <trkpt lat="44.55309" lon="3.83566">
        <ele>1175.69</ele>
        <time>2023-09-12T06:27:28Z</time>
      </trkpt>
      <trkpt lat="44.55301" lon="3.83542">
        <ele>1177.69</ele>
        <time>2023-09-12T06:27:44Z</time>
      </trkpt>
      <trkpt lat="44.55289" lon="3.83517">
        <ele>1176.69</ele>
        <time>2023-09-12T06:28:00Z</time>
      </trkpt>
      <trkpt lat="44.55273" lon="3.83499">
        <ele>1176.69</ele>
        <time>2023-09-12T06:28:16Z</time>
      </trkpt>
      <trkpt lat="44.55253" lon="3.8349">
        <ele>1177.69</ele>
        <time>2023-09-12T06:28:32Z</time>
      </trkpt>
      <trkpt lat="44.55235" lon="3.83483">
        <ele>1178.69</ele>
        <time>2023-09-12T06:28:44Z</time>
      </trkpt>
      <trkpt lat="44.55219" lon="3.83475">
        <ele>1175.69</ele>
        <time>2023-09-12T06:29:00Z</time>
      </trkpt>
      <trkpt lat="44.55202" lon="3.83458">
        <ele>1171.69</ele>
        <time>2023-09-12T06:29:16Z</time>
      </trkpt>
      <trkpt lat="44.55191" lon="3.83436">
        <ele>1167.69</ele>
        <time>2023-09-12T06:29:32Z</time>
      </trkpt>
      <trkpt lat="44.5519" lon="3.83408">
        <ele>1168.69</ele>
        <time>2023-09-12T06:29:48Z</time>
      </trkpt>
      <trkpt lat="44.55189" lon="3.8338">
        <ele>1166.69</ele>
        <time>2023-09-12T06:30:04Z</time>
      </trkpt>
      <trkpt lat="44.55184" lon="3.83352">
        <ele>1165.69</ele>
        <time>2023-09-12T06:30:20Z</time>
      </trkpt>
      <trkpt lat="44.55177" lon="3.83329">
        <ele>1163.69</ele>
        <time>2023-09-12T06:30:36Z</time>
      </trkpt>
      <trkpt lat="44.55171" lon="3.83303">
        <ele>1165.69</ele>
        <time>2023-09-12T06:30:56Z</time>
      </trkpt>
      <trkpt lat="44.55163" lon="3.83279">
        <ele>1169.69</ele>
        <time>2023-09-12T06:31:12Z</time>
      </trkpt>
      <trkpt lat="44.55155" lon="3.83253">
        <ele>1173.69</ele>
        <time>2023-09-12T06:31:28Z</time>
      </trkpt>
      <trkpt lat="44.55146" lon="3.83226">
        <ele>1174.69</ele>
        <time>2023-09-12T06:31:48Z</time>
      </trkpt>
      <trkpt lat="44.55137" lon="3.83201">
        <ele>1177.69</ele>
        <time>2023-09-12T06:32:04Z</time>
      </trkpt>
      <trkpt lat="44.5513" lon="3.83173">
        <ele>1178.69</ele>
        <time>2023-09-12T06:32:24Z</time>
      </trkpt>
      <trkpt lat="44.55124" lon="3.83148">
        <ele>1182.69</ele>
        <time>2023-09-12T06:32:40Z</time>
      </trkpt>
      <trkpt lat="44.55119" lon="3.8312">
        <ele>1181.69</ele>
        <time>2023-09-12T06:32:56Z</time>
      </trkpt>
      <trkpt lat="44.55116" lon="3.83093">
        <ele>1178.69</ele>
        <time>2023-09-12T06:33:12Z</time>
      </trkpt>
      <trkpt lat="44.55116" lon="3.83066">
        <ele>1179.69</ele>
        <time>2023-09-12T06:33:28Z</time>
      </trkpt>
      <trkpt lat="44.55112" lon="3.83036">
        <ele>1180.69</ele>
        <time>2023-09-12T06:33:48Z</time>
      </trkpt>
      <trkpt lat="44.55112" lon="3.83009">
        <ele>1179.69</ele>
        <time>2023-09-12T06:34:04Z</time>
      </trkpt>
      <trkpt lat="44.5511" lon="3.82982">
        <ele>1180.69</ele>
        <time>2023-09-12T06:34:20Z</time>
      </trkpt>
      <trkpt lat="44.55109" lon="3.82955">
        <ele>1179.69</ele>
        <time>2023-09-12T06:34:36Z</time>
      </trkpt>
      <trkpt lat="44.55111" lon="3.82929">
        <ele>1180.69</ele>
        <time>2023-09-12T06:34:52Z</time>
      </trkpt>
      <trkpt lat="44.5511" lon="3.82902">
        <ele>1181.69</ele>
        <time>2023-09-12T06:35:08Z</time>
      </trkpt>
      <trkpt lat="44.55114" lon="3.82875">
        <ele>1181.69</ele>
        <time>2023-09-12T06:35:24Z</time>
      </trkpt>
      <trkpt lat="44.55115" lon="3.82847">
        <ele>1181.69</ele>
        <time>2023-09-12T06:35:40Z</time>
      </trkpt>
      <trkpt lat="44.55118" lon="3.82821">
        <ele>1180.69</ele>
        <time>2023-09-12T06:35:56Z</time>
      </trkpt>
      <trkpt lat="44.55119" lon="3.82792">
        <ele>1180.69</ele>
        <time>2023-09-12T06:36:12Z</time>
      </trkpt>
      <trkpt lat="44.55122" lon="3.82765">
        <ele>1181.69</ele>
        <time>2023-09-12T06:36:28Z</time>
      </trkpt>
      <trkpt lat="44.55125" lon="3.82737">
        <ele>1180.69</ele>
        <time>2023-09-12T06:36:44Z</time>
      </trkpt>
      <trkpt lat="44.55126" lon="3.8271">
        <ele>1180.69</ele>
        <time>2023-09-12T06:37:00Z</time>
      </trkpt>
      <trkpt lat="44.55128" lon="3.82679">
        <ele>1179.69</ele>
        <time>2023-09-12T06:37:20Z</time>
      </trkpt>
      <trkpt lat="44.55128" lon="3.82647">
        <ele>1176.69</ele>
        <time>2023-09-12T06:37:40Z</time>
      </trkpt>
      <trkpt lat="44.5514" lon="3.82623">
        <ele>1172.69</ele>
        <time>2023-09-12T06:38:12Z</time>
      </trkpt>
      <trkpt lat="44.55155" lon="3.82609">
        <ele>1173.69</ele>
        <time>2023-09-12T06:38:56Z</time>
      </trkpt>
      <trkpt lat="44.55137" lon="3.82624">
        <ele>1175.69</ele>
        <time>2023-09-12T06:39:28Z</time>
      </trkpt>
      <trkpt lat="44.55116" lon="3.82638">
        <ele>1177.69</ele>
        <time>2023-09-12T06:39:48Z</time>
      </trkpt>
      <trkpt lat="44.55098" lon="3.82648">
        <ele>1176.69</ele>
        <time>2023-09-12T06:40:04Z</time>
      </trkpt>
      <trkpt lat="44.5508" lon="3.82642">
        <ele>1171.69</ele>
        <time>2023-09-12T06:40:24Z</time>
      </trkpt>
      <trkpt lat="44.55089" lon="3.82618">
        <ele>1167.69</ele>
        <time>2023-09-12T06:50:00Z</time>
      </trkpt>
      <trkpt lat="44.5509" lon="3.82591">
        <ele>1165.69</ele>
        <time>2023-09-12T06:50:40Z</time>
      </trkpt>
      <trkpt lat="44.55079" lon="3.82568">
        <ele>1173.69</ele>
        <time>2023-09-12T06:51:12Z</time>
      </trkpt>
      <trkpt lat="44.55097" lon="3.82562">
        <ele>1183.69</ele>
        <time>2023-09-12T06:52:04Z</time>
      </trkpt>
      <trkpt lat="44.55109" lon="3.82539">
        <ele>1181.69</ele>
        <time>2023-09-12T06:53:48Z</time>
      </trkpt>
      <trkpt lat="44.55113" lon="3.82514">
        <ele>1182.69</ele>
        <time>2023-09-12T06:54:08Z</time>
      </trkpt>
      <trkpt lat="44.55121" lon="3.82489">
        <ele>1179.69</ele>
        <time>2023-09-12T06:55:04Z</time>
      </trkpt>
      <trkpt lat="44.55122" lon="3.82462">
        <ele>1180.69</ele>
        <time>2023-09-12T06:55:20Z</time>
      </trkpt>
      <trkpt lat="44.55115" lon="3.82434">
        <ele>1180.69</ele>
        <time>2023-09-12T06:55:52Z</time>
      </trkpt>
      <trkpt lat="44.55106" lon="3.8241">
        <ele>1183.69</ele>
        <time>2023-09-12T06:56:28Z</time>
      </trkpt>
      <trkpt lat="44.55105" lon="3.82383">
        <ele>1183.69</ele>
        <time>2023-09-12T06:56:48Z</time>
      </trkpt>
      <trkpt lat="44.55104" lon="3.82353">
        <ele>1183.69</ele>
        <time>2023-09-12T06:57:08Z</time>
      </trkpt>
      <trkpt lat="44.551" lon="3.82328">
        <ele>1183.69</ele>
        <time>2023-09-12T06:57:24Z</time>
      </trkpt>
      <trkpt lat="44.55098" lon="3.82303">
        <ele>1183.69</ele>
        <time>2023-09-12T06:57:40Z</time>
      </trkpt>
      <trkpt lat="44.55095" lon="3.82277">
        <ele>1183.69</ele>
        <time>2023-09-12T06:57:56Z</time>
      </trkpt>
      <trkpt lat="44.55093" lon="3.82246">
        <ele>1181.69</ele>
        <time>2023-09-12T06:58:16Z</time>
      </trkpt>
      <trkpt lat="44.55093" lon="3.8222">
        <ele>1180.69</ele>
        <time>2023-09-12T06:58:32Z</time>
      </trkpt>
      <trkpt lat="44.55094" lon="3.82194">
        <ele>1178.69</ele>
        <time>2023-09-12T06:58:48Z</time>
      </trkpt>
      <trkpt lat="44.55091" lon="3.82168">
        <ele>1175.69</ele>
        <time>2023-09-12T06:59:04Z</time>
      </trkpt>
      <trkpt lat="44.55093" lon="3.82142">
        <ele>1173.69</ele>
        <time>2023-09-12T06:59:20Z</time>
      </trkpt>
      <trkpt lat="44.55093" lon="3.82114">
        <ele>1169.69</ele>
        <time>2023-09-12T06:59:36Z</time>
      </trkpt>
      <trkpt lat="44.55095" lon="3.82083">
        <ele>1168.69</ele>
        <time>2023-09-12T06:59:56Z</time>
      </trkpt>
      <trkpt lat="44.55098" lon="3.82057">
        <ele>1165.69</ele>
        <time>2023-09-12T07:00:12Z</time>
      </trkpt>
      <trkpt lat="44.55098" lon="3.8203">
        <ele>1162.69</ele>
        <time>2023-09-12T07:00:28Z</time>
      </trkpt>
      <trkpt lat="44.55098" lon="3.82003">
        <ele>1160.69</ele>
        <time>2023-09-12T07:00:44Z</time>
      </trkpt>
      <trkpt lat="44.55094" lon="3.81975">
        <ele>1159.69</ele>
        <time>2023-09-12T07:01:00Z</time>
      </trkpt>
      <trkpt lat="44.55088" lon="3.8195">
        <ele>1155.69</ele>
        <time>2023-09-12T07:01:16Z</time>
      </trkpt>
      <trkpt lat="44.55077" lon="3.8193">
        <ele>1154.69</ele>
        <time>2023-09-12T07:01:32Z</time>
      </trkpt>
      <trkpt lat="44.55069" lon="3.81907">
        <ele>1154.69</ele>
        <time>2023-09-12T07:02:12Z</time>
      </trkpt>
      <trkpt lat="44.55055" lon="3.81888">
        <ele>1151.69</ele>
        <time>2023-09-12T07:02:28Z</time>
      </trkpt>
      <trkpt lat="44.5504" lon="3.81868">
        <ele>1149.69</ele>
        <time>2023-09-12T07:02:44Z</time>
      </trkpt>
      <trkpt lat="44.55026" lon="3.81848">
        <ele>1147.69</ele>
        <time>2023-09-12T07:03:00Z</time>
      </trkpt>
      <trkpt lat="44.55011" lon="3.81827">
        <ele>1145.69</ele>
        <time>2023-09-12T07:03:16Z</time>
      </trkpt>
      <trkpt lat="44.54994" lon="3.81805">
        <ele>1144.69</ele>
        <time>2023-09-12T07:03:52Z</time>
      </trkpt>
      <trkpt lat="44.54981" lon="3.81789">
        <ele>1142.69</ele>
        <time>2023-09-12T07:04:08Z</time>
      </trkpt>
      <trkpt lat="44.54969" lon="3.81768">
        <ele>1143.69</ele>
        <time>2023-09-12T07:04:24Z</time>
      </trkpt>
      <trkpt lat="44.54952" lon="3.81747">
        <ele>1139.69</ele>
        <time>2023-09-12T07:04:44Z</time>
      </trkpt>
      <trkpt lat="44.54946" lon="3.8172">
        <ele>1138.69</ele>
        <time>2023-09-12T07:05:24Z</time>
      </trkpt>
      <trkpt lat="44.54943" lon="3.81693">
        <ele>1137.69</ele>
        <time>2023-09-12T07:05:48Z</time>
      </trkpt>
      <trkpt lat="44.54941" lon="3.81668">
        <ele>1134.69</ele>
        <time>2023-09-12T07:06:04Z</time>
      </trkpt>
      <trkpt lat="44.54941" lon="3.81638">
        <ele>1134.69</ele>
        <time>2023-09-12T07:06:28Z</time>
      </trkpt>
      <trkpt lat="44.5495" lon="3.81615">
        <ele>1132.69</ele>
        <time>2023-09-12T07:06:44Z</time>
      </trkpt>
      <trkpt lat="44.54931" lon="3.81605">
        <ele>1130.69</ele>
        <time>2023-09-12T07:07:04Z</time>
      </trkpt>
      <trkpt lat="44.54914" lon="3.81591">
        <ele>1123.69</ele>
        <time>2023-09-12T07:07:24Z</time>
      </trkpt>
      <trkpt lat="44.54928" lon="3.81571">
        <ele>1122.69</ele>
        <time>2023-09-12T07:08:08Z</time>
      </trkpt>
      <trkpt lat="44.54948" lon="3.81563">
        <ele>1121.69</ele>
        <time>2023-09-12T07:08:44Z</time>
      </trkpt>
      <trkpt lat="44.54968" lon="3.81565">
        <ele>1121.69</ele>
        <time>2023-09-12T07:09:00Z</time>
      </trkpt>
      <trkpt lat="44.54959" lon="3.81537">
        <ele>1117.69</ele>
        <time>2023-09-12T07:09:36Z</time>
      </trkpt>
      <trkpt lat="44.54941" lon="3.81529">
        <ele>1115.69</ele>
        <time>2023-09-12T07:09:52Z</time>
      </trkpt>
      <trkpt lat="44.54921" lon="3.81529">
        <ele>1111.69</ele>
        <time>2023-09-12T07:10:08Z</time>
      </trkpt>
      <trkpt lat="44.54903" lon="3.81514">
        <ele>1107.69</ele>
        <time>2023-09-12T07:10:36Z</time>
      </trkpt>
      <trkpt lat="44.54888" lon="3.81495">
        <ele>1103.69</ele>
        <time>2023-09-12T07:10:56Z</time>
      </trkpt>
      <trkpt lat="44.54873" lon="3.81481">
        <ele>1102.69</ele>
        <time>2023-09-12T07:11:12Z</time>
      </trkpt>
      <trkpt lat="44.54856" lon="3.81461">
        <ele>1098.69</ele>
        <time>2023-09-12T07:11:32Z</time>
      </trkpt>
      <trkpt lat="44.54838" lon="3.8146">
        <ele>1096.69</ele>
        <time>2023-09-12T07:12:08Z</time>
      </trkpt>
      <trkpt lat="44.5482" lon="3.81472">
        <ele>1097.69</ele>
        <time>2023-09-12T07:12:40Z</time>
      </trkpt>
      <trkpt lat="44.54806" lon="3.81494">
        <ele>1095.69</ele>
        <time>2023-09-12T07:13:00Z</time>
      </trkpt>
      <trkpt lat="44.54794" lon="3.81516">
        <ele>1095.69</ele>
        <time>2023-09-12T07:13:20Z</time>
      </trkpt>
      <trkpt lat="44.54776" lon="3.81526">
        <ele>1097.69</ele>
        <time>2023-09-12T07:13:56Z</time>
      </trkpt>
      <trkpt lat="44.54758" lon="3.81541">
        <ele>1102.69</ele>
        <time>2023-09-12T07:14:28Z</time>
      </trkpt>
      <trkpt lat="44.54739" lon="3.81542">
        <ele>1107.69</ele>
        <time>2023-09-12T07:14:48Z</time>
      </trkpt>
      <trkpt lat="44.54719" lon="3.81526">
        <ele>1105.69</ele>
        <time>2023-09-12T07:15:08Z</time>
      </trkpt>
      <trkpt lat="44.54701" lon="3.81522">
        <ele>1106.69</ele>
        <time>2023-09-12T07:15:28Z</time>
      </trkpt>
      <trkpt lat="44.54682" lon="3.81522">
        <ele>1112.69</ele>
        <time>2023-09-12T07:15:48Z</time>
      </trkpt>
      <trkpt lat="44.54662" lon="3.81518">
        <ele>1114.69</ele>
        <time>2023-09-12T07:16:12Z</time>
      </trkpt>
      <trkpt lat="44.54641" lon="3.81519">
        <ele>1117.69</ele>
        <time>2023-09-12T07:16:32Z</time>
      </trkpt>
      <trkpt lat="44.54622" lon="3.8153">
        <ele>1116.69</ele>
        <time>2023-09-12T07:16:56Z</time>
      </trkpt>
      <trkpt lat="44.54635" lon="3.81511">
        <ele>1116.69</ele>
        <time>2023-09-12T07:18:04Z</time>
      </trkpt>
      <trkpt lat="44.54651" lon="3.81494">
        <ele>1120.69</ele>
        <time>2023-09-12T07:18:28Z</time>
      </trkpt>
      <trkpt lat="44.54666" lon="3.81474">
        <ele>1124.69</ele>
        <time>2023-09-12T07:19:00Z</time>
      </trkpt>
      <trkpt lat="44.54673" lon="3.8145">
        <ele>1124.69</ele>
        <time>2023-09-12T07:20:04Z</time>
      </trkpt>
      <trkpt lat="44.54663" lon="3.81474">
        <ele>1128.69</ele>
        <time>2023-09-12T07:20:56Z</time>
      </trkpt>
      <trkpt lat="44.54649" lon="3.81491">
        <ele>1123.69</ele>
        <time>2023-09-12T07:21:12Z</time>
      </trkpt>
      <trkpt lat="44.54636" lon="3.81509">
        <ele>1120.69</ele>
        <time>2023-09-12T07:21:28Z</time>
      </trkpt>
      <trkpt lat="44.54618" lon="3.81516">
        <ele>1116.69</ele>
        <time>2023-09-12T07:21:48Z</time>
      </trkpt>
      <trkpt lat="44.54599" lon="3.81504">
        <ele>1118.69</ele>
        <time>2023-09-12T07:22:08Z</time>
      </trkpt>
      <trkpt lat="44.54582" lon="3.81488">
        <ele>1118.69</ele>
        <time>2023-09-12T07:22:28Z</time>
      </trkpt>
      <trkpt lat="44.54563" lon="3.81473">
        <ele>1124.69</ele>
        <time>2023-09-12T07:22:56Z</time>
      </trkpt>
      <trkpt lat="44.54547" lon="3.81457">
        <ele>1126.69</ele>
        <time>2023-09-12T07:23:16Z</time>
      </trkpt>
      <trkpt lat="44.54529" lon="3.81447">
        <ele>1127.69</ele>
        <time>2023-09-12T07:23:36Z</time>
      </trkpt>
      <trkpt lat="44.54512" lon="3.81435">
        <ele>1126.69</ele>
        <time>2023-09-12T07:23:56Z</time>
      </trkpt>
      <trkpt lat="44.54504" lon="3.81412">
        <ele>1127.69</ele>
        <time>2023-09-12T07:24:16Z</time>
      </trkpt>
      <trkpt lat="44.54489" lon="3.81395">
        <ele>1129.69</ele>
        <time>2023-09-12T07:24:40Z</time>
      </trkpt>
      <trkpt lat="44.54491" lon="3.81367">
        <ele>1135.69</ele>
        <time>2023-09-12T07:26:28Z</time>
      </trkpt>
      <trkpt lat="44.54496" lon="3.81339">
        <ele>1135.69</ele>
        <time>2023-09-12T07:26:44Z</time>
      </trkpt>
      <trkpt lat="44.54504" lon="3.81316">
        <ele>1135.69</ele>
        <time>2023-09-12T07:27:00Z</time>
      </trkpt>
      <trkpt lat="44.54512" lon="3.81293">
        <ele>1133.69</ele>
        <time>2023-09-12T07:27:16Z</time>
      </trkpt>
      <trkpt lat="44.54506" lon="3.81267">
        <ele>1129.69</ele>
        <time>2023-09-12T07:27:32Z</time>
      </trkpt>
      <trkpt lat="44.54499" lon="3.81242">
        <ele>1128.69</ele>
        <time>2023-09-12T07:27:48Z</time>
      </trkpt>
      <trkpt lat="44.54487" lon="3.81222">
        <ele>1125.69</ele>
        <time>2023-09-12T07:28:04Z</time>
      </trkpt>
      <trkpt lat="44.54472" lon="3.81198">
        <ele>1123.69</ele>
        <time>2023-09-12T07:28:24Z</time>
      </trkpt>
      <trkpt lat="44.54461" lon="3.81172">
        <ele>1121.69</ele>
        <time>2023-09-12T07:28:48Z</time>
      </trkpt>
      <trkpt lat="44.54442" lon="3.81161">
        <ele>1120.69</ele>
        <time>2023-09-12T07:29:04Z</time>
      </trkpt>
      <trkpt lat="44.5442" lon="3.81152">
        <ele>1118.69</ele>
        <time>2023-09-12T07:29:24Z</time>
      </trkpt>
      <trkpt lat="44.54403" lon="3.81147">
        <ele>1117.69</ele>
        <time>2023-09-12T07:29:40Z</time>
      </trkpt>
      <trkpt lat="44.54385" lon="3.81139">
        <ele>1120.69</ele>
        <time>2023-09-12T07:29:56Z</time>
      </trkpt>
      <trkpt lat="44.54376" lon="3.81117">
        <ele>1116.69</ele>
        <time>2023-09-12T07:30:16Z</time>
      </trkpt>
      <trkpt lat="44.54386" lon="3.81092">
        <ele>1115.69</ele>
        <time>2023-09-12T07:30:36Z</time>
      </trkpt>
      <trkpt lat="44.54401" lon="3.81075">
        <ele>1116.69</ele>
        <time>2023-09-12T07:30:56Z</time>
      </trkpt>
      <trkpt lat="44.54418" lon="3.81061">
        <ele>1117.69</ele>
        <time>2023-09-12T07:31:16Z</time>
      </trkpt>
      <trkpt lat="44.54435" lon="3.81048">
        <ele>1123.69</ele>
        <time>2023-09-12T07:31:36Z</time>
      </trkpt>
      <trkpt lat="44.54453" lon="3.81033">
        <ele>1125.69</ele>
        <time>2023-09-12T07:31:56Z</time>
      </trkpt>
      <trkpt lat="44.5447" lon="3.81019">
        <ele>1127.69</ele>
        <time>2023-09-12T07:32:20Z</time>
      </trkpt>
      <trkpt lat="44.54485" lon="3.81">
        <ele>1129.69</ele>
        <time>2023-09-12T07:32:40Z</time>
      </trkpt>
      <trkpt lat="44.54502" lon="3.80985">
        <ele>1132.69</ele>
        <time>2023-09-12T07:33:04Z</time>
      </trkpt>
      <trkpt lat="44.54511" lon="3.80959">
        <ele>1131.69</ele>
        <time>2023-09-12T07:33:24Z</time>
      </trkpt>
      <trkpt lat="44.54514" lon="3.80931">
        <ele>1133.69</ele>
        <time>2023-09-12T07:34:00Z</time>
      </trkpt>
      <trkpt lat="44.54516" lon="3.80905">
        <ele>1135.69</ele>
        <time>2023-09-12T07:34:20Z</time>
      </trkpt>
      <trkpt lat="44.54519" lon="3.80879">
        <ele>1137.69</ele>
        <time>2023-09-12T07:34:40Z</time>
      </trkpt>
      <trkpt lat="44.54521" lon="3.80853">
        <ele>1136.69</ele>
        <time>2023-09-12T07:35:00Z</time>
      </trkpt>
      <trkpt lat="44.54524" lon="3.80825">
        <ele>1135.69</ele>
        <time>2023-09-12T07:35:20Z</time>
      </trkpt>
      <trkpt lat="44.54527" lon="3.80797">
        <ele>1135.69</ele>
        <time>2023-09-12T07:35:40Z</time>
      </trkpt>
      <trkpt lat="44.5453" lon="3.80769">
        <ele>1136.69</ele>
        <time>2023-09-12T07:36:00Z</time>
      </trkpt>
      <trkpt lat="44.5453" lon="3.8074">
        <ele>1136.69</ele>
        <time>2023-09-12T07:36:20Z</time>
      </trkpt>
      <trkpt lat="44.54533" lon="3.8071">
        <ele>1136.69</ele>
        <time>2023-09-12T07:36:40Z</time>
      </trkpt>
      <trkpt lat="44.54535" lon="3.80679">
        <ele>1136.69</ele>
        <time>2023-09-12T07:37:00Z</time>
      </trkpt>
      <trkpt lat="44.54537" lon="3.80649">
        <ele>1136.69</ele>
        <time>2023-09-12T07:37:20Z</time>
      </trkpt>
      <trkpt lat="44.54535" lon="3.80619">
        <ele>1136.69</ele>
        <time>2023-09-12T07:37:40Z</time>
      </trkpt>
      <trkpt lat="44.54533" lon="3.80589">
        <ele>1132.69</ele>
        <time>2023-09-12T07:38:00Z</time>
      </trkpt>
      <trkpt lat="44.54527" lon="3.8056">
        <ele>1130.69</ele>
        <time>2023-09-12T07:38:20Z</time>
      </trkpt>
      <trkpt lat="44.5452" lon="3.80532">
        <ele>1129.69</ele>
        <time>2023-09-12T07:38:40Z</time>
      </trkpt>
      <trkpt lat="44.54515" lon="3.80503">
        <ele>1132.69</ele>
        <time>2023-09-12T07:39:00Z</time>
      </trkpt>
      <trkpt lat="44.54501" lon="3.80481">
        <ele>1133.69</ele>
        <time>2023-09-12T07:39:20Z</time>
      </trkpt>
      <trkpt lat="44.5449" lon="3.8046">
        <ele>1133.69</ele>
        <time>2023-09-12T07:39:40Z</time>
      </trkpt>
      <trkpt lat="44.54478" lon="3.80439">
        <ele>1134.69</ele>
        <time>2023-09-12T07:39:56Z</time>
      </trkpt>
      <trkpt lat="44.54464" lon="3.80418">
        <ele>1135.69</ele>
        <time>2023-09-12T07:40:16Z</time>
      </trkpt>
      <trkpt lat="44.54447" lon="3.804">
        <ele>1135.69</ele>
        <time>2023-09-12T07:40:36Z</time>
      </trkpt>
      <trkpt lat="44.54429" lon="3.80384">
        <ele>1136.69</ele>
        <time>2023-09-12T07:41:00Z</time>
      </trkpt>
      <trkpt lat="44.5441" lon="3.80375">
        <ele>1136.69</ele>
        <time>2023-09-12T07:41:28Z</time>
      </trkpt>
      <trkpt lat="44.54392" lon="3.80368">
        <ele>1137.69</ele>
        <time>2023-09-12T07:41:48Z</time>
      </trkpt>
      <trkpt lat="44.54374" lon="3.80359">
        <ele>1140.69</ele>
        <time>2023-09-12T07:42:08Z</time>
      </trkpt>
      <trkpt lat="44.54354" lon="3.80352">
        <ele>1140.69</ele>
        <time>2023-09-12T07:42:28Z</time>
      </trkpt>
      <trkpt lat="44.54333" lon="3.80345">
        <ele>1145.69</ele>
        <time>2023-09-12T07:42:52Z</time>
      </trkpt>
      <trkpt lat="44.54312" lon="3.80339">
        <ele>1151.69</ele>
        <time>2023-09-12T07:43:24Z</time>
      </trkpt>
      <trkpt lat="44.54294" lon="3.80326">
        <ele>1153.69</ele>
        <time>2023-09-12T07:46:16Z</time>
      </trkpt>
      <trkpt lat="44.54277" lon="3.80312">
        <ele>1152.69</ele>
        <time>2023-09-12T07:46:36Z</time>
      </trkpt>
      <trkpt lat="44.54257" lon="3.80302">
        <ele>1150.69</ele>
        <time>2023-09-12T07:46:56Z</time>
      </trkpt>
      <trkpt lat="44.5424" lon="3.80293">
        <ele>1151.69</ele>
        <time>2023-09-12T07:47:16Z</time>
      </trkpt>
      <trkpt lat="44.54221" lon="3.80285">
        <ele>1151.69</ele>
        <time>2023-09-12T07:47:36Z</time>
      </trkpt>
      <trkpt lat="44.54201" lon="3.80285">
        <ele>1150.69</ele>
        <time>2023-09-12T07:47:56Z</time>
      </trkpt>
      <trkpt lat="44.5418" lon="3.80286">
        <ele>1147.69</ele>
        <time>2023-09-12T07:48:20Z</time>
      </trkpt>
      <trkpt lat="44.54161" lon="3.80282">
        <ele>1147.69</ele>
        <time>2023-09-12T07:51:00Z</time>
      </trkpt>
      <trkpt lat="44.54142" lon="3.80282">
        <ele>1147.69</ele>
        <time>2023-09-12T07:51:16Z</time>
      </trkpt>
      <trkpt lat="44.54122" lon="3.80285">
        <ele>1146.69</ele>
        <time>2023-09-12T07:51:36Z</time>
      </trkpt>
      <trkpt lat="44.54102" lon="3.80283">
        <ele>1147.69</ele>
        <time>2023-09-12T07:51:56Z</time>
      </trkpt>
      <trkpt lat="44.54091" lon="3.80259">
        <ele>1148.69</ele>
        <time>2023-09-12T07:52:20Z</time>
      </trkpt>
      <trkpt lat="44.54076" lon="3.80239">
        <ele>1149.69</ele>
        <time>2023-09-12T07:52:40Z</time>
      </trkpt>
      <trkpt lat="44.54061" lon="3.80222">
        <ele>1149.69</ele>
        <time>2023-09-12T07:53:08Z</time>
      </trkpt>
      <trkpt lat="44.54045" lon="3.80203">
        <ele>1150.69</ele>
        <time>2023-09-12T07:53:28Z</time>
      </trkpt>
      <trkpt lat="44.54041" lon="3.80178">
        <ele>1154.69</ele>
        <time>2023-09-12T07:53:52Z</time>
      </trkpt>
      <trkpt lat="44.54037" lon="3.80153">
        <ele>1152.69</ele>
        <time>2023-09-12T07:54:20Z</time>
      </trkpt>
      <trkpt lat="44.54026" lon="3.80126">
        <ele>1155.69</ele>
        <time>2023-09-12T07:54:40Z</time>
      </trkpt>
      <trkpt lat="44.54016" lon="3.80101">
        <ele>1162.69</ele>
        <time>2023-09-12T07:55:00Z</time>
      </trkpt>
      <trkpt lat="44.54006" lon="3.80076">
        <ele>1161.69</ele>
        <time>2023-09-12T07:55:20Z</time>
      </trkpt>
      <trkpt lat="44.53998" lon="3.80047">
        <ele>1162.69</ele>
        <time>2023-09-12T07:55:40Z</time>
      </trkpt>
      <trkpt lat="44.53995" lon="3.80021">
        <ele>1162.69</ele>
        <time>2023-09-12T07:56:00Z</time>
      </trkpt>
      <trkpt lat="44.54007" lon="3.79996">
        <ele>1161.69</ele>
        <time>2023-09-12T07:56:20Z</time>
      </trkpt>
      <trkpt lat="44.54026" lon="3.79995">
        <ele>1165.69</ele>
        <time>2023-09-12T07:56:40Z</time>
      </trkpt>
      <trkpt lat="44.54045" lon="3.80011">
        <ele>1169.69</ele>
        <time>2023-09-12T07:57:04Z</time>
      </trkpt>
      <trkpt lat="44.54058" lon="3.80029">
        <ele>1175.69</ele>
        <time>2023-09-12T07:57:24Z</time>
      </trkpt>
      <trkpt lat="44.54075" lon="3.80049">
        <ele>1176.69</ele>
        <time>2023-09-12T07:57:44Z</time>
      </trkpt>
      <trkpt lat="44.54091" lon="3.80067">
        <ele>1174.69</ele>
        <time>2023-09-12T07:58:00Z</time>
      </trkpt>
      <trkpt lat="44.54111" lon="3.8005">
        <ele>1171.69</ele>
        <time>2023-09-12T07:58:20Z</time>
      </trkpt>
      <trkpt lat="44.54121" lon="3.80029">
        <ele>1170.69</ele>
        <time>2023-09-12T07:58:36Z</time>
      </trkpt>
      <trkpt lat="44.54133" lon="3.80008">
        <ele>1173.69</ele>
        <time>2023-09-12T07:58:56Z</time>
      </trkpt>
      <trkpt lat="44.54143" lon="3.79983">
        <ele>1173.69</ele>
        <time>2023-09-12T07:59:16Z</time>
      </trkpt>
      <trkpt lat="44.54147" lon="3.79958">
        <ele>1175.69</ele>
        <time>2023-09-12T07:59:36Z</time>
      </trkpt>
      <trkpt lat="44.54145" lon="3.79929">
        <ele>1176.69</ele>
        <time>2023-09-12T07:59:56Z</time>
      </trkpt>
      <trkpt lat="44.5414" lon="3.79902">
        <ele>1178.69</ele>
        <time>2023-09-12T08:00:16Z</time>
      </trkpt>
      <trkpt lat="44.54131" lon="3.79878">
        <ele>1179.69</ele>
        <time>2023-09-12T08:00:36Z</time>
      </trkpt>
      <trkpt lat="44.54119" lon="3.79855">
        <ele>1180.69</ele>
        <time>2023-09-12T08:00:56Z</time>
      </trkpt>
      <trkpt lat="44.54106" lon="3.79833">
        <ele>1180.69</ele>
        <time>2023-09-12T08:01:16Z</time>
      </trkpt>
      <trkpt lat="44.54096" lon="3.7981">
        <ele>1182.69</ele>
        <time>2023-09-12T08:01:36Z</time>
      </trkpt>
      <trkpt lat="44.54083" lon="3.7979">
        <ele>1183.69</ele>
        <time>2023-09-12T08:02:00Z</time>
      </trkpt>
      <trkpt lat="44.54074" lon="3.79764">
        <ele>1185.69</ele>
        <time>2023-09-12T08:02:20Z</time>
      </trkpt>
      <trkpt lat="44.54066" lon="3.79736">
        <ele>1187.69</ele>
        <time>2023-09-12T08:02:40Z</time>
      </trkpt>
      <trkpt lat="44.54056" lon="3.79711">
        <ele>1187.69</ele>
        <time>2023-09-12T08:03:00Z</time>
      </trkpt>
      <trkpt lat="44.5404" lon="3.79695">
        <ele>1189.69</ele>
        <time>2023-09-12T08:03:20Z</time>
      </trkpt>
      <trkpt lat="44.54022" lon="3.79701">
        <ele>1189.69</ele>
        <time>2023-09-12T08:03:36Z</time>
      </trkpt>
      <trkpt lat="44.54005" lon="3.79717">
        <ele>1193.69</ele>
        <time>2023-09-12T08:03:56Z</time>
      </trkpt>
      <trkpt lat="44.53987" lon="3.79735">
        <ele>1194.69</ele>
        <time>2023-09-12T08:04:16Z</time>
      </trkpt>
      <trkpt lat="44.5397" lon="3.79753">
        <ele>1194.69</ele>
        <time>2023-09-12T08:04:36Z</time>
      </trkpt>
      <trkpt lat="44.53954" lon="3.79767">
        <ele>1195.69</ele>
        <time>2023-09-12T08:04:52Z</time>
      </trkpt>
      <trkpt lat="44.53935" lon="3.7978">
        <ele>1196.69</ele>
        <time>2023-09-12T08:05:12Z</time>
      </trkpt>
      <trkpt lat="44.53924" lon="3.79758">
        <ele>1199.69</ele>
        <time>2023-09-12T08:08:40Z</time>
      </trkpt>
      <trkpt lat="44.5392" lon="3.79728">
        <ele>1198.69</ele>
        <time>2023-09-12T08:09:04Z</time>
      </trkpt>
      <trkpt lat="44.5391" lon="3.79703">
        <ele>1198.69</ele>
        <time>2023-09-12T08:09:24Z</time>
      </trkpt>
      <trkpt lat="44.53898" lon="3.79682">
        <ele>1200.69</ele>
        <time>2023-09-12T08:09:44Z</time>
      </trkpt>
      <trkpt lat="44.53883" lon="3.79661">
        <ele>1203.69</ele>
        <time>2023-09-12T08:10:04Z</time>
      </trkpt>
      <trkpt lat="44.53867" lon="3.79645">
        <ele>1207.69</ele>
        <time>2023-09-12T08:10:24Z</time>
      </trkpt>
      <trkpt lat="44.53851" lon="3.79629">
        <ele>1210.69</ele>
        <time>2023-09-12T08:10:44Z</time>
      </trkpt>
      <trkpt lat="44.53831" lon="3.79613">
        <ele>1215.69</ele>
        <time>2023-09-12T08:11:08Z</time>
      </trkpt>
      <trkpt lat="44.53818" lon="3.7959">
        <ele>1220.69</ele>
        <time>2023-09-12T08:11:28Z</time>
      </trkpt>
      <trkpt lat="44.53802" lon="3.79572">
        <ele>1223.69</ele>
        <time>2023-09-12T08:11:48Z</time>
      </trkpt>
      <trkpt lat="44.53787" lon="3.79555">
        <ele>1226.69</ele>
        <time>2023-09-12T08:12:08Z</time>
      </trkpt>
      <trkpt lat="44.53768" lon="3.79541">
        <ele>1226.69</ele>
        <time>2023-09-12T08:12:28Z</time>
      </trkpt>
      <trkpt lat="44.53753" lon="3.79517">
        <ele>1231.69</ele>
        <time>2023-09-12T08:12:52Z</time>
      </trkpt>
      <trkpt lat="44.53737" lon="3.79503">
        <ele>1235.69</ele>
        <time>2023-09-12T08:13:12Z</time>
      </trkpt>
      <trkpt lat="44.53719" lon="3.79486">
        <ele>1242.69</ele>
        <time>2023-09-12T08:13:32Z</time>
      </trkpt>
      <trkpt lat="44.537" lon="3.79472">
        <ele>1248.69</ele>
        <time>2023-09-12T08:13:56Z</time>
      </trkpt>
      <trkpt lat="44.53681" lon="3.79465">
        <ele>1250.69</ele>
        <time>2023-09-12T08:14:20Z</time>
      </trkpt>
      <trkpt lat="44.53661" lon="3.79462">
        <ele>1254.69</ele>
        <time>2023-09-12T08:14:40Z</time>
      </trkpt>
      <trkpt lat="44.53641" lon="3.79446">
        <ele>1255.69</ele>
        <time>2023-09-12T08:15:37Z</time>
      </trkpt>
      <trkpt lat="44.53622" lon="3.79432">
        <ele>1260.69</ele>
        <time>2023-09-12T08:15:57Z</time>
      </trkpt>
      <trkpt lat="44.53603" lon="3.79429">
        <ele>1267.69</ele>
        <time>2023-09-12T08:16:25Z</time>
      </trkpt>
      <trkpt lat="44.53585" lon="3.79418">
        <ele>1273.69</ele>
        <time>2023-09-12T08:16:45Z</time>
      </trkpt>
      <trkpt lat="44.53565" lon="3.79426">
        <ele>1282.69</ele>
        <time>2023-09-12T08:17:13Z</time>
      </trkpt>
      <trkpt lat="44.53546" lon="3.7943">
        <ele>1287.69</ele>
        <time>2023-09-12T08:17:33Z</time>
      </trkpt>
      <trkpt lat="44.53529" lon="3.7944">
        <ele>1295.69</ele>
        <time>2023-09-12T08:17:57Z</time>
      </trkpt>
      <trkpt lat="44.53508" lon="3.79448">
        <ele>1300.69</ele>
        <time>2023-09-12T08:18:21Z</time>
      </trkpt>
      <trkpt lat="44.5349" lon="3.79456">
        <ele>1304.69</ele>
        <time>2023-09-12T08:18:45Z</time>
      </trkpt>
      <trkpt lat="44.53468" lon="3.79456">
        <ele>1306.69</ele>
        <time>2023-09-12T08:19:09Z</time>
      </trkpt>
      <trkpt lat="44.5345" lon="3.79458">
        <ele>1309.69</ele>
        <time>2023-09-12T08:19:29Z</time>
      </trkpt>
      <trkpt lat="44.5343" lon="3.79462">
        <ele>1313.69</ele>
        <time>2023-09-12T08:19:49Z</time>
      </trkpt>
      <trkpt lat="44.53408" lon="3.7946">
        <ele>1320.69</ele>
        <time>2023-09-12T08:20:21Z</time>
      </trkpt>
      <trkpt lat="44.5339" lon="3.79454">
        <ele>1325.69</ele>
        <time>2023-09-12T08:20:41Z</time>
      </trkpt>
      <trkpt lat="44.53377" lon="3.79436">
        <ele>1330.69</ele>
        <time>2023-09-12T08:21:13Z</time>
      </trkpt>
      <trkpt lat="44.5337" lon="3.79412">
        <ele>1330.69</ele>
        <time>2023-09-12T08:21:33Z</time>
      </trkpt>
      <trkpt lat="44.53351" lon="3.79404">
        <ele>1326.69</ele>
        <time>2023-09-12T08:21:49Z</time>
      </trkpt>
      <trkpt lat="44.53345" lon="3.79434">
        <ele>1328.69</ele>
        <time>2023-09-12T08:22:21Z</time>
      </trkpt>
      <trkpt lat="44.53347" lon="3.7946">
        <ele>1332.69</ele>
        <time>2023-09-12T08:22:41Z</time>
      </trkpt>
      <trkpt lat="44.53348" lon="3.79488">
        <ele>1331.69</ele>
        <time>2023-09-12T08:23:01Z</time>
      </trkpt>
      <trkpt lat="44.53355" lon="3.79515">
        <ele>1332.69</ele>
        <time>2023-09-12T08:23:21Z</time>
      </trkpt>
      <trkpt lat="44.53367" lon="3.79535">
        <ele>1335.69</ele>
        <time>2023-09-12T08:23:45Z</time>
      </trkpt>
      <trkpt lat="44.53383" lon="3.7955">
        <ele>1338.69</ele>
        <time>2023-09-12T08:24:05Z</time>
      </trkpt>
      <trkpt lat="44.534" lon="3.79568">
        <ele>1339.69</ele>
        <time>2023-09-12T08:24:25Z</time>
      </trkpt>
      <trkpt lat="44.53414" lon="3.79589">
        <ele>1342.69</ele>
        <time>2023-09-12T08:24:45Z</time>
      </trkpt>
      <trkpt lat="44.53426" lon="3.79608">
        <ele>1341.69</ele>
        <time>2023-09-12T08:25:05Z</time>
      </trkpt>
      <trkpt lat="44.53437" lon="3.7963">
        <ele>1341.69</ele>
        <time>2023-09-12T08:25:25Z</time>
      </trkpt>
      <trkpt lat="44.53447" lon="3.79655">
        <ele>1347.69</ele>
        <time>2023-09-12T08:33:34Z</time>
      </trkpt>
      <trkpt lat="44.53457" lon="3.79633">
        <ele>1354.69</ele>
        <time>2023-09-12T08:50:15Z</time>
      </trkpt>
      <trkpt lat="44.53438" lon="3.7962">
        <ele>1352.69</ele>
        <time>2023-09-12T08:51:52Z</time>
      </trkpt>
      <trkpt lat="44.5342" lon="3.79606">
        <ele>1351.69</ele>
        <time>2023-09-12T08:52:12Z</time>
      </trkpt>
      <trkpt lat="44.53402" lon="3.796">
        <ele>1352.69</ele>
        <time>2023-09-12T08:52:32Z</time>
      </trkpt>
      <trkpt lat="44.53384" lon="3.79589">
        <ele>1352.69</ele>
        <time>2023-09-12T08:52:52Z</time>
      </trkpt>
      <trkpt lat="44.53365" lon="3.79577">
        <ele>1354.69</ele>
        <time>2023-09-12T08:53:16Z</time>
      </trkpt>
      <trkpt lat="44.53348" lon="3.79563">
        <ele>1359.69</ele>
        <time>2023-09-12T08:53:36Z</time>
      </trkpt>
      <trkpt lat="44.5333" lon="3.79546">
        <ele>1359.69</ele>
        <time>2023-09-12T08:53:56Z</time>
      </trkpt>
      <trkpt lat="44.53313" lon="3.79529">
        <ele>1357.69</ele>
        <time>2023-09-12T08:54:16Z</time>
      </trkpt>
      <trkpt lat="44.533" lon="3.79507">
        <ele>1362.69</ele>
        <time>2023-09-12T08:54:40Z</time>
      </trkpt>
      <trkpt lat="44.53286" lon="3.79488">
        <ele>1363.69</ele>
        <time>2023-09-12T08:55:00Z</time>
      </trkpt>
      <trkpt lat="44.53275" lon="3.79466">
        <ele>1366.69</ele>
        <time>2023-09-12T08:55:20Z</time>
      </trkpt>
      <trkpt lat="44.53263" lon="3.79444">
        <ele>1367.69</ele>
        <time>2023-09-12T08:55:48Z</time>
      </trkpt>
      <trkpt lat="44.53251" lon="3.79423">
        <ele>1365.69</ele>
        <time>2023-09-12T08:56:08Z</time>
      </trkpt>
      <trkpt lat="44.53241" lon="3.794">
        <ele>1369.69</ele>
        <time>2023-09-12T08:56:28Z</time>
      </trkpt>
      <trkpt lat="44.5323" lon="3.79375">
        <ele>1376.69</ele>
        <time>2023-09-12T08:56:56Z</time>
      </trkpt>
      <trkpt lat="44.53221" lon="3.7935">
        <ele>1379.69</ele>
        <time>2023-09-12T08:57:16Z</time>
      </trkpt>
      <trkpt lat="44.53231" lon="3.79328">
        <ele>1378.69</ele>
        <time>2023-09-12T08:57:40Z</time>
      </trkpt>
      <trkpt lat="44.53238" lon="3.79299">
        <ele>1374.69</ele>
        <time>2023-09-12T08:58:04Z</time>
      </trkpt>
      <trkpt lat="44.53243" lon="3.79274">
        <ele>1371.69</ele>
        <time>2023-09-12T08:58:20Z</time>
      </trkpt>
      <trkpt lat="44.5325" lon="3.79249">
        <ele>1370.69</ele>
        <time>2023-09-12T08:58:40Z</time>
      </trkpt>
      <trkpt lat="44.53258" lon="3.79226">
        <ele>1375.69</ele>
        <time>2023-09-12T08:59:00Z</time>
      </trkpt>
      <trkpt lat="44.53262" lon="3.79198">
        <ele>1379.69</ele>
        <time>2023-09-12T08:59:20Z</time>
      </trkpt>
      <trkpt lat="44.53266" lon="3.79171">
        <ele>1384.69</ele>
        <time>2023-09-12T08:59:40Z</time>
      </trkpt>
      <trkpt lat="44.53265" lon="3.79145">
        <ele>1386.69</ele>
        <time>2023-09-12T09:00:00Z</time>
      </trkpt>
      <trkpt lat="44.53262" lon="3.79119">
        <ele>1388.69</ele>
        <time>2023-09-12T09:00:20Z</time>
      </trkpt>
      <trkpt lat="44.53262" lon="3.79091">
        <ele>1391.69</ele>
        <time>2023-09-12T09:00:40Z</time>
      </trkpt>
      <trkpt lat="44.53262" lon="3.79063">
        <ele>1393.69</ele>
        <time>2023-09-12T09:01:00Z</time>
      </trkpt>
      <trkpt lat="44.53259" lon="3.79033">
        <ele>1394.69</ele>
        <time>2023-09-12T09:01:20Z</time>
      </trkpt>
      <trkpt lat="44.53257" lon="3.79006">
        <ele>1393.69</ele>
        <time>2023-09-12T09:01:52Z</time>
      </trkpt>
      <trkpt lat="44.53257" lon="3.78976">
        <ele>1395.69</ele>
        <time>2023-09-12T09:02:16Z</time>
      </trkpt>
      <trkpt lat="44.53256" lon="3.78945">
        <ele>1397.69</ele>
        <time>2023-09-12T09:02:40Z</time>
      </trkpt>
      <trkpt lat="44.53249" lon="3.78918">
        <ele>1397.69</ele>
        <time>2023-09-12T09:03:00Z</time>
      </trkpt>
      <trkpt lat="44.53246" lon="3.78889">
        <ele>1397.69</ele>
        <time>2023-09-12T09:03:20Z</time>
      </trkpt>
      <trkpt lat="44.53247" lon="3.78861">
        <ele>1399.69</ele>
        <time>2023-09-12T09:03:40Z</time>
      </trkpt>
      <trkpt lat="44.53245" lon="3.78832">
        <ele>1399.69</ele>
        <time>2023-09-12T09:04:00Z</time>
      </trkpt>
      <trkpt lat="44.53243" lon="3.78801">
        <ele>1398.69</ele>
        <time>2023-09-12T09:04:20Z</time>
      </trkpt>
      <trkpt lat="44.53239" lon="3.78771">
        <ele>1401.69</ele>
        <time>2023-09-12T09:04:40Z</time>
      </trkpt>
      <trkpt lat="44.53232" lon="3.78742">
        <ele>1402.69</ele>
        <time>2023-09-12T09:05:00Z</time>
      </trkpt>
      <trkpt lat="44.5322" lon="3.78719">
        <ele>1405.69</ele>
        <time>2023-09-12T09:05:20Z</time>
      </trkpt>
      <trkpt lat="44.53203" lon="3.78699">
        <ele>1407.69</ele>
        <time>2023-09-12T09:05:40Z</time>
      </trkpt>
      <trkpt lat="44.53189" lon="3.7868">
        <ele>1407.69</ele>
        <time>2023-09-12T09:06:00Z</time>
      </trkpt>
      <trkpt lat="44.53173" lon="3.78666">
        <ele>1409.69</ele>
        <time>2023-09-12T09:06:20Z</time>
      </trkpt>
      <trkpt lat="44.53154" lon="3.78652">
        <ele>1410.69</ele>
        <time>2023-09-12T09:06:40Z</time>
      </trkpt>
      <trkpt lat="44.53136" lon="3.78635">
        <ele>1413.69</ele>
        <time>2023-09-12T09:07:00Z</time>
      </trkpt>
      <trkpt lat="44.53119" lon="3.7862">
        <ele>1415.69</ele>
        <time>2023-09-12T09:07:20Z</time>
      </trkpt>
      <trkpt lat="44.53099" lon="3.78613">
        <ele>1412.69</ele>
        <time>2023-09-12T09:07:36Z</time>
      </trkpt>
      <trkpt lat="44.53083" lon="3.786">
        <ele>1410.69</ele>
        <time>2023-09-12T09:07:52Z</time>
      </trkpt>
      <trkpt lat="44.53065" lon="3.78583">
        <ele>1411.69</ele>
        <time>2023-09-12T09:08:12Z</time>
      </trkpt>
      <trkpt lat="44.5305" lon="3.78566">
        <ele>1411.69</ele>
        <time>2023-09-12T09:08:28Z</time>
      </trkpt>
      <trkpt lat="44.53033" lon="3.78547">
        <ele>1409.69</ele>
        <time>2023-09-12T09:08:48Z</time>
      </trkpt>
      <trkpt lat="44.53012" lon="3.78547">
        <ele>1412.69</ele>
        <time>2023-09-12T09:09:08Z</time>
      </trkpt>
      <trkpt lat="44.52992" lon="3.78548">
        <ele>1415.69</ele>
        <time>2023-09-12T09:10:12Z</time>
      </trkpt>
      <trkpt lat="44.52978" lon="3.7857">
        <ele>1414.69</ele>
        <time>2023-09-12T09:11:40Z</time>
      </trkpt>
      <trkpt lat="44.52966" lon="3.78591">
        <ele>1412.69</ele>
        <time>2023-09-12T09:12:04Z</time>
      </trkpt>
      <trkpt lat="44.52954" lon="3.78611">
        <ele>1410.69</ele>
        <time>2023-09-12T09:12:24Z</time>
      </trkpt>
      <trkpt lat="44.52943" lon="3.7863">
        <ele>1408.69</ele>
        <time>2023-09-12T09:12:40Z</time>
      </trkpt>
      <trkpt lat="44.52925" lon="3.78643">
        <ele>1407.69</ele>
        <time>2023-09-12T09:12:56Z</time>
      </trkpt>
      <trkpt lat="44.52912" lon="3.78663">
        <ele>1403.69</ele>
        <time>2023-09-12T09:13:16Z</time>
      </trkpt>
      <trkpt lat="44.52897" lon="3.78684">
        <ele>1402.69</ele>
        <time>2023-09-12T09:13:36Z</time>
      </trkpt>
      <trkpt lat="44.5288" lon="3.78698">
        <ele>1401.69</ele>
        <time>2023-09-12T09:13:52Z</time>
      </trkpt>
      <trkpt lat="44.52864" lon="3.7872">
        <ele>1400.69</ele>
        <time>2023-09-12T09:14:12Z</time>
      </trkpt>
      <trkpt lat="44.52854" lon="3.78744">
        <ele>1401.69</ele>
        <time>2023-09-12T09:14:28Z</time>
      </trkpt>
      <trkpt lat="44.52846" lon="3.78768">
        <ele>1400.69</ele>
        <time>2023-09-12T09:14:44Z</time>
      </trkpt>
      <trkpt lat="44.52839" lon="3.78793">
        <ele>1398.69</ele>
        <time>2023-09-12T09:15:00Z</time>
      </trkpt>
      <trkpt lat="44.52831" lon="3.7882">
        <ele>1403.69</ele>
        <time>2023-09-12T09:15:20Z</time>
      </trkpt>
      <trkpt lat="44.52824" lon="3.78848">
        <ele>1403.69</ele>
        <time>2023-09-12T09:15:40Z</time>
      </trkpt>
      <trkpt lat="44.52813" lon="3.78872">
        <ele>1405.69</ele>
        <time>2023-09-12T09:15:56Z</time>
      </trkpt>
      <trkpt lat="44.52803" lon="3.78894">
        <ele>1407.69</ele>
        <time>2023-09-12T09:16:12Z</time>
      </trkpt>
      <trkpt lat="44.52789" lon="3.78911">
        <ele>1408.69</ele>
        <time>2023-09-12T09:16:28Z</time>
      </trkpt>
      <trkpt lat="44.52778" lon="3.78937">
        <ele>1405.69</ele>
        <time>2023-09-12T09:16:48Z</time>
      </trkpt>
      <trkpt lat="44.52761" lon="3.78955">
        <ele>1403.69</ele>
        <time>2023-09-12T09:17:08Z</time>
      </trkpt>
      <trkpt lat="44.52745" lon="3.78969">
        <ele>1399.69</ele>
        <time>2023-09-12T09:17:24Z</time>
      </trkpt>
      <trkpt lat="44.52725" lon="3.78982">
        <ele>1394.69</ele>
        <time>2023-09-12T09:17:48Z</time>
      </trkpt>
      <trkpt lat="44.52705" lon="3.78991">
        <ele>1393.69</ele>
        <time>2023-09-12T09:18:08Z</time>
      </trkpt>
      <trkpt lat="44.52683" lon="3.78989">
        <ele>1395.69</ele>
        <time>2023-09-12T09:18:32Z</time>
      </trkpt>
      <trkpt lat="44.52665" lon="3.78988">
        <ele>1396.69</ele>
        <time>2023-09-12T09:18:48Z</time>
      </trkpt>
      <trkpt lat="44.52645" lon="3.78983">
        <ele>1399.69</ele>
        <time>2023-09-12T09:19:04Z</time>
      </trkpt>
      <trkpt lat="44.52624" lon="3.78987">
        <ele>1399.69</ele>
        <time>2023-09-12T09:19:24Z</time>
      </trkpt>
      <trkpt lat="44.52601" lon="3.78993">
        <ele>1399.69</ele>
        <time>2023-09-12T09:19:48Z</time>
      </trkpt>
      <trkpt lat="44.5258" lon="3.79002">
        <ele>1401.69</ele>
        <time>2023-09-12T09:20:08Z</time>
      </trkpt>
      <trkpt lat="44.5256" lon="3.79014">
        <ele>1402.69</ele>
        <time>2023-09-12T09:20:28Z</time>
      </trkpt>
      <trkpt lat="44.52543" lon="3.79022">
        <ele>1403.69</ele>
        <time>2023-09-12T09:20:44Z</time>
      </trkpt>
      <trkpt lat="44.52527" lon="3.79038">
        <ele>1400.69</ele>
        <time>2023-09-12T09:21:00Z</time>
      </trkpt>
      <trkpt lat="44.52512" lon="3.79052">
        <ele>1400.69</ele>
        <time>2023-09-12T09:21:16Z</time>
      </trkpt>
      <trkpt lat="44.52496" lon="3.79064">
        <ele>1400.69</ele>
        <time>2023-09-12T09:21:32Z</time>
      </trkpt>
      <trkpt lat="44.52481" lon="3.79082">
        <ele>1399.69</ele>
        <time>2023-09-12T09:21:48Z</time>
      </trkpt>
      <trkpt lat="44.52467" lon="3.79103">
        <ele>1398.69</ele>
        <time>2023-09-12T09:22:04Z</time>
      </trkpt>
      <trkpt lat="44.52454" lon="3.79121">
        <ele>1395.69</ele>
        <time>2023-09-12T09:22:20Z</time>
      </trkpt>
      <trkpt lat="44.52442" lon="3.79141">
        <ele>1394.69</ele>
        <time>2023-09-12T09:22:36Z</time>
      </trkpt>
      <trkpt lat="44.52435" lon="3.79165">
        <ele>1396.69</ele>
        <time>2023-09-12T09:22:52Z</time>
      </trkpt>
      <trkpt lat="44.52425" lon="3.79188">
        <ele>1397.69</ele>
        <time>2023-09-12T09:23:08Z</time>
      </trkpt>
      <trkpt lat="44.52415" lon="3.79212">
        <ele>1398.69</ele>
        <time>2023-09-12T09:23:24Z</time>
      </trkpt>
      <trkpt lat="44.52407" lon="3.79236">
        <ele>1396.69</ele>
        <time>2023-09-12T09:23:40Z</time>
      </trkpt>
      <trkpt lat="44.52399" lon="3.7926">
        <ele>1395.69</ele>
        <time>2023-09-12T09:23:56Z</time>
      </trkpt>
      <trkpt lat="44.52389" lon="3.79284">
        <ele>1396.69</ele>
        <time>2023-09-12T09:24:12Z</time>
      </trkpt>
      <trkpt lat="44.52381" lon="3.79307">
        <ele>1396.69</ele>
        <time>2023-09-12T09:24:28Z</time>
      </trkpt>
      <trkpt lat="44.52372" lon="3.79336">
        <ele>1394.69</ele>
        <time>2023-09-12T09:24:48Z</time>
      </trkpt>
      <trkpt lat="44.52369" lon="3.79364">
        <ele>1391.69</ele>
        <time>2023-09-12T09:25:04Z</time>
      </trkpt>
      <trkpt lat="44.52365" lon="3.79392">
        <ele>1392.69</ele>
        <time>2023-09-12T09:25:21Z</time>
      </trkpt>
      <trkpt lat="44.52357" lon="3.7942">
        <ele>1395.69</ele>
        <time>2023-09-12T09:25:41Z</time>
      </trkpt>
      <trkpt lat="44.52353" lon="3.79445">
        <ele>1397.69</ele>
        <time>2023-09-12T09:25:58Z</time>
      </trkpt>
      <trkpt lat="44.52346" lon="3.79473">
        <ele>1397.69</ele>
        <time>2023-09-12T09:26:18Z</time>
      </trkpt>
      <trkpt lat="44.52336" lon="3.79498">
        <ele>1392.69</ele>
        <time>2023-09-12T09:26:38Z</time>
      </trkpt>
      <trkpt lat="44.52327" lon="3.79523">
        <ele>1390.69</ele>
        <time>2023-09-12T09:26:58Z</time>
      </trkpt>
      <trkpt lat="44.52317" lon="3.79545">
        <ele>1388.69</ele>
        <time>2023-09-12T09:27:14Z</time>
      </trkpt>
      <trkpt lat="44.52308" lon="3.79567">
        <ele>1386.69</ele>
        <time>2023-09-12T09:27:30Z</time>
      </trkpt>
      <trkpt lat="44.52296" lon="3.79593">
        <ele>1382.69</ele>
        <time>2023-09-12T09:27:50Z</time>
      </trkpt>
      <trkpt lat="44.52281" lon="3.79613">
        <ele>1379.69</ele>
        <time>2023-09-12T09:28:10Z</time>
      </trkpt>
      <trkpt lat="44.52266" lon="3.79628">
        <ele>1377.69</ele>
        <time>2023-09-12T09:28:30Z</time>
      </trkpt>
      <trkpt lat="44.52246" lon="3.79628">
        <ele>1375.69</ele>
        <time>2023-09-12T09:28:54Z</time>
      </trkpt>
      <trkpt lat="44.52224" lon="3.79621">
        <ele>1371.69</ele>
        <time>2023-09-12T09:29:18Z</time>
      </trkpt>
      <trkpt lat="44.52205" lon="3.79621">
        <ele>1368.69</ele>
        <time>2023-09-12T09:29:42Z</time>
      </trkpt>
      <trkpt lat="44.52188" lon="3.79613">
        <ele>1366.69</ele>
        <time>2023-09-12T09:29:58Z</time>
      </trkpt>
      <trkpt lat="44.52167" lon="3.79609">
        <ele>1363.69</ele>
        <time>2023-09-12T09:30:18Z</time>
      </trkpt>
      <trkpt lat="44.52149" lon="3.79603">
        <ele>1359.69</ele>
        <time>2023-09-12T09:30:38Z</time>
      </trkpt>
      <trkpt lat="44.52131" lon="3.79595">
        <ele>1357.69</ele>
        <time>2023-09-12T09:30:54Z</time>
      </trkpt>
      <trkpt lat="44.52113" lon="3.79589">
        <ele>1352.69</ele>
        <time>2023-09-12T09:31:14Z</time>
      </trkpt>
      <trkpt lat="44.52094" lon="3.79581">
        <ele>1347.69</ele>
        <time>2023-09-12T09:31:34Z</time>
      </trkpt>
      <trkpt lat="44.52076" lon="3.79573">
        <ele>1345.69</ele>
        <time>2023-09-12T09:31:54Z</time>
      </trkpt>
      <trkpt lat="44.52055" lon="3.79568">
        <ele>1342.69</ele>
        <time>2023-09-12T09:32:14Z</time>
      </trkpt>
      <trkpt lat="44.52038" lon="3.79578">
        <ele>1340.69</ele>
        <time>2023-09-12T09:32:30Z</time>
      </trkpt>
      <trkpt lat="44.52019" lon="3.79578">
        <ele>1338.69</ele>
        <time>2023-09-12T09:32:46Z</time>
      </trkpt>
      <trkpt lat="44.51998" lon="3.79584">
        <ele>1335.69</ele>
        <time>2023-09-12T09:33:10Z</time>
      </trkpt>
      <trkpt lat="44.51979" lon="3.79581">
        <ele>1334.69</ele>
        <time>2023-09-12T09:33:26Z</time>
      </trkpt>
      <trkpt lat="44.51962" lon="3.79597">
        <ele>1331.69</ele>
        <time>2023-09-12T09:33:54Z</time>
      </trkpt>
      <trkpt lat="44.51945" lon="3.79611">
        <ele>1323.69</ele>
        <time>2023-09-12T09:34:26Z</time>
      </trkpt>
      <trkpt lat="44.51928" lon="3.79629">
        <ele>1315.69</ele>
        <time>2023-09-12T09:34:46Z</time>
      </trkpt>
      <trkpt lat="44.51913" lon="3.79653">
        <ele>1308.69</ele>
        <time>2023-09-12T09:35:06Z</time>
      </trkpt>
      <trkpt lat="44.51895" lon="3.79658">
        <ele>1310.69</ele>
        <time>2023-09-12T09:35:26Z</time>
      </trkpt>
      <trkpt lat="44.51876" lon="3.79668">
        <ele>1310.69</ele>
        <time>2023-09-12T09:35:42Z</time>
      </trkpt>
      <trkpt lat="44.51863" lon="3.79687">
        <ele>1307.69</ele>
        <time>2023-09-12T09:35:58Z</time>
      </trkpt>
      <trkpt lat="44.51845" lon="3.79703">
        <ele>1300.69</ele>
        <time>2023-09-12T09:36:18Z</time>
      </trkpt>
      <trkpt lat="44.51826" lon="3.79714">
        <ele>1299.69</ele>
        <time>2023-09-12T09:36:34Z</time>
      </trkpt>
      <trkpt lat="44.51811" lon="3.7973">
        <ele>1294.69</ele>
        <time>2023-09-12T09:36:54Z</time>
      </trkpt>
      <trkpt lat="44.51795" lon="3.79747">
        <ele>1291.69</ele>
        <time>2023-09-12T09:37:10Z</time>
      </trkpt>
      <trkpt lat="44.51777" lon="3.79746">
        <ele>1291.69</ele>
        <time>2023-09-12T09:37:26Z</time>
      </trkpt>
      <trkpt lat="44.51756" lon="3.79758">
        <ele>1292.69</ele>
        <time>2023-09-12T09:37:46Z</time>
      </trkpt>
      <trkpt lat="44.51739" lon="3.79776">
        <ele>1283.69</ele>
        <time>2023-09-12T09:38:34Z</time>
      </trkpt>
      <trkpt lat="44.51713" lon="3.79775">
        <ele>1287.69</ele>
        <time>2023-09-12T09:38:54Z</time>
      </trkpt>
      <trkpt lat="44.51694" lon="3.79786">
        <ele>1285.69</ele>
        <time>2023-09-12T09:39:06Z</time>
      </trkpt>
      <trkpt lat="44.5167" lon="3.79793">
        <ele>1286.69</ele>
        <time>2023-09-12T09:39:22Z</time>
      </trkpt>
      <trkpt lat="44.51654" lon="3.79812">
        <ele>1285.69</ele>
        <time>2023-09-12T09:39:34Z</time>
      </trkpt>
      <trkpt lat="44.51638" lon="3.798">
        <ele>1270.69</ele>
        <time>2023-09-12T09:39:58Z</time>
      </trkpt>
      <trkpt lat="44.51652" lon="3.79783">
        <ele>1272.69</ele>
        <time>2023-09-12T09:40:50Z</time>
      </trkpt>
      <trkpt lat="44.51672" lon="3.79763">
        <ele>1270.69</ele>
        <time>2023-09-12T09:41:42Z</time>
      </trkpt>
      <trkpt lat="44.51684" lon="3.79745">
        <ele>1267.69</ele>
        <time>2023-09-12T09:41:58Z</time>
      </trkpt>
      <trkpt lat="44.51695" lon="3.79719">
        <ele>1267.69</ele>
        <time>2023-09-12T09:42:18Z</time>
      </trkpt>
      <trkpt lat="44.51706" lon="3.79697">
        <ele>1266.69</ele>
        <time>2023-09-12T09:42:35Z</time>
      </trkpt>
      <trkpt lat="44.51718" lon="3.79673">
        <ele>1267.69</ele>
        <time>2023-09-12T09:42:56Z</time>
      </trkpt>
      <trkpt lat="44.51732" lon="3.79656">
        <ele>1268.69</ele>
        <time>2023-09-12T09:43:13Z</time>
      </trkpt>
      <trkpt lat="44.51747" lon="3.79637">
        <ele>1269.69</ele>
        <time>2023-09-12T09:43:45Z</time>
      </trkpt>
      <trkpt lat="44.51756" lon="3.7961">
        <ele>1265.69</ele>
        <time>2023-09-12T09:44:05Z</time>
      </trkpt>
      <trkpt lat="44.51765" lon="3.79584">
        <ele>1265.69</ele>
        <time>2023-09-12T09:44:25Z</time>
      </trkpt>
      <trkpt lat="44.5177" lon="3.79556">
        <ele>1267.69</ele>
        <time>2023-09-12T09:44:41Z</time>
      </trkpt>
      <trkpt lat="44.51777" lon="3.79528">
        <ele>1264.69</ele>
        <time>2023-09-12T09:45:01Z</time>
      </trkpt>
      <trkpt lat="44.5179" lon="3.79505">
        <ele>1262.69</ele>
        <time>2023-09-12T09:45:17Z</time>
      </trkpt>
      <trkpt lat="44.51804" lon="3.79487">
        <ele>1263.69</ele>
        <time>2023-09-12T09:45:33Z</time>
      </trkpt>
      <trkpt lat="44.51808" lon="3.79457">
        <ele>1265.69</ele>
        <time>2023-09-12T09:45:53Z</time>
      </trkpt>
      <trkpt lat="44.51812" lon="3.79429">
        <ele>1268.69</ele>
        <time>2023-09-12T09:46:09Z</time>
      </trkpt>
      <trkpt lat="44.51819" lon="3.79403">
        <ele>1262.69</ele>
        <time>2023-09-12T09:46:29Z</time>
      </trkpt>
      <trkpt lat="44.51826" lon="3.79378">
        <ele>1266.69</ele>
        <time>2023-09-12T09:46:49Z</time>
      </trkpt>
      <trkpt lat="44.5182" lon="3.79354">
        <ele>1272.69</ele>
        <time>2023-09-12T09:47:09Z</time>
      </trkpt>
      <trkpt lat="44.51798" lon="3.79363">
        <ele>1273.69</ele>
        <time>2023-09-12T09:47:25Z</time>
      </trkpt>
      <trkpt lat="44.51787" lon="3.79387">
        <ele>1268.69</ele>
        <time>2023-09-12T09:47:41Z</time>
      </trkpt>
      <trkpt lat="44.51773" lon="3.79408">
        <ele>1276.69</ele>
        <time>2023-09-12T09:48:01Z</time>
      </trkpt>
      <trkpt lat="44.51754" lon="3.7942">
        <ele>1273.69</ele>
        <time>2023-09-12T09:48:25Z</time>
      </trkpt>
      <trkpt lat="44.51737" lon="3.7943">
        <ele>1274.69</ele>
        <time>2023-09-12T09:48:45Z</time>
      </trkpt>
      <trkpt lat="44.51721" lon="3.79447">
        <ele>1277.69</ele>
        <time>2023-09-12T09:49:01Z</time>
      </trkpt>
      <trkpt lat="44.51735" lon="3.7943">
        <ele>1277.69</ele>
        <time>2023-09-12T09:49:29Z</time>
      </trkpt>
      <trkpt lat="44.51748" lon="3.79413">
        <ele>1278.69</ele>
        <time>2023-09-12T09:49:49Z</time>
      </trkpt>
      <trkpt lat="44.51761" lon="3.7939">
        <ele>1278.69</ele>
        <time>2023-09-12T09:50:13Z</time>
      </trkpt>
      <trkpt lat="44.51773" lon="3.79368">
        <ele>1278.69</ele>
        <time>2023-09-12T09:50:33Z</time>
      </trkpt>
      <trkpt lat="44.51783" lon="3.79344">
        <ele>1280.69</ele>
        <time>2023-09-12T09:50:53Z</time>
      </trkpt>
      <trkpt lat="44.51795" lon="3.79321">
        <ele>1281.69</ele>
        <time>2023-09-12T09:51:13Z</time>
      </trkpt>
      <trkpt lat="44.51801" lon="3.79296">
        <ele>1283.69</ele>
        <time>2023-09-12T09:51:29Z</time>
      </trkpt>
      <trkpt lat="44.5181" lon="3.79273">
        <ele>1284.69</ele>
        <time>2023-09-12T09:51:49Z</time>
      </trkpt>
      <trkpt lat="44.51819" lon="3.7925">
        <ele>1284.69</ele>
        <time>2023-09-12T09:52:09Z</time>
      </trkpt>
      <trkpt lat="44.5183" lon="3.79224">
        <ele>1285.69</ele>
        <time>2023-09-12T09:52:29Z</time>
      </trkpt>
      <trkpt lat="44.51839" lon="3.79199">
        <ele>1289.69</ele>
        <time>2023-09-12T09:52:49Z</time>
      </trkpt>
      <trkpt lat="44.51845" lon="3.79173">
        <ele>1288.69</ele>
        <time>2023-09-12T09:53:09Z</time>
      </trkpt>
      <trkpt lat="44.51856" lon="3.79145">
        <ele>1290.69</ele>
        <time>2023-09-12T09:53:29Z</time>
      </trkpt>
      <trkpt lat="44.51865" lon="3.79122">
        <ele>1293.69</ele>
        <time>2023-09-12T09:53:49Z</time>
      </trkpt>
      <trkpt lat="44.51874" lon="3.79098">
        <ele>1293.69</ele>
        <time>2023-09-12T09:54:09Z</time>
      </trkpt>
      <trkpt lat="44.5188" lon="3.79072">
        <ele>1296.69</ele>
        <time>2023-09-12T09:54:29Z</time>
      </trkpt>
      <trkpt lat="44.51883" lon="3.79041">
        <ele>1298.69</ele>
        <time>2023-09-12T09:54:49Z</time>
      </trkpt>
      <trkpt lat="44.5189" lon="3.79016">
        <ele>1300.69</ele>
        <time>2023-09-12T09:55:09Z</time>
      </trkpt>
      <trkpt lat="44.51885" lon="3.78989">
        <ele>1301.69</ele>
        <time>2023-09-12T09:55:33Z</time>
      </trkpt>
      <trkpt lat="44.51878" lon="3.78964">
        <ele>1300.69</ele>
        <time>2023-09-12T09:55:49Z</time>
      </trkpt>
      <trkpt lat="44.51896" lon="3.78967">
        <ele>1305.69</ele>
        <time>2023-09-12T09:56:25Z</time>
      </trkpt>
      <trkpt lat="44.51917" lon="3.7897">
        <ele>1307.69</ele>
        <time>2023-09-12T09:56:49Z</time>
      </trkpt>
      <trkpt lat="44.51934" lon="3.78957">
        <ele>1307.69</ele>
        <time>2023-09-12T09:57:05Z</time>
      </trkpt>
      <trkpt lat="44.51952" lon="3.78938">
        <ele>1305.69</ele>
        <time>2023-09-12T09:57:25Z</time>
      </trkpt>
      <trkpt lat="44.51964" lon="3.78918">
        <ele>1304.69</ele>
        <time>2023-09-12T09:57:42Z</time>
      </trkpt>
      <trkpt lat="44.51978" lon="3.78897">
        <ele>1306.69</ele>
        <time>2023-09-12T09:58:02Z</time>
      </trkpt>
      <trkpt lat="44.51988" lon="3.7887">
        <ele>1304.69</ele>
        <time>2023-09-12T09:58:22Z</time>
      </trkpt>
      <trkpt lat="44.52003" lon="3.78847">
        <ele>1302.69</ele>
        <time>2023-09-12T09:58:42Z</time>
      </trkpt>
      <trkpt lat="44.52014" lon="3.78821">
        <ele>1301.69</ele>
        <time>2023-09-12T09:59:02Z</time>
      </trkpt>
      <trkpt lat="44.52024" lon="3.78796">
        <ele>1304.69</ele>
        <time>2023-09-12T09:59:22Z</time>
      </trkpt>
      <trkpt lat="44.52035" lon="3.78772">
        <ele>1305.69</ele>
        <time>2023-09-12T09:59:42Z</time>
      </trkpt>
      <trkpt lat="44.52043" lon="3.78745">
        <ele>1308.69</ele>
        <time>2023-09-12T10:00:02Z</time>
      </trkpt>
      <trkpt lat="44.52053" lon="3.78721">
        <ele>1310.69</ele>
        <time>2023-09-12T10:00:22Z</time>
      </trkpt>
      <trkpt lat="44.5206" lon="3.78696">
        <ele>1312.69</ele>
        <time>2023-09-12T10:00:46Z</time>
      </trkpt>
      <trkpt lat="44.52069" lon="3.78668">
        <ele>1314.69</ele>
        <time>2023-09-12T10:01:06Z</time>
      </trkpt>
      <trkpt lat="44.52077" lon="3.78641">
        <ele>1315.69</ele>
        <time>2023-09-12T10:01:26Z</time>
      </trkpt>
      <trkpt lat="44.52086" lon="3.78613">
        <ele>1315.69</ele>
        <time>2023-09-12T10:01:46Z</time>
      </trkpt>
      <trkpt lat="44.52095" lon="3.78586">
        <ele>1316.69</ele>
        <time>2023-09-12T10:02:06Z</time>
      </trkpt>
      <trkpt lat="44.52105" lon="3.78559">
        <ele>1316.69</ele>
        <time>2023-09-12T10:02:30Z</time>
      </trkpt>
      <trkpt lat="44.52115" lon="3.78534">
        <ele>1315.69</ele>
        <time>2023-09-12T10:02:50Z</time>
      </trkpt>
      <trkpt lat="44.52126" lon="3.78514">
        <ele>1317.69</ele>
        <time>2023-09-12T10:03:10Z</time>
      </trkpt>
      <trkpt lat="44.52136" lon="3.78487">
        <ele>1319.69</ele>
        <time>2023-09-12T10:03:30Z</time>
      </trkpt>
      <trkpt lat="44.52144" lon="3.78463">
        <ele>1317.69</ele>
        <time>2023-09-12T10:03:46Z</time>
      </trkpt>
      <trkpt lat="44.5215" lon="3.78435">
        <ele>1323.69</ele>
        <time>2023-09-12T10:04:06Z</time>
      </trkpt>
      <trkpt lat="44.52151" lon="3.78408">
        <ele>1322.69</ele>
        <time>2023-09-12T10:04:26Z</time>
      </trkpt>
      <trkpt lat="44.52132" lon="3.78404">
        <ele>1325.69</ele>
        <time>2023-09-12T10:06:26Z</time>
      </trkpt>
      <trkpt lat="44.52118" lon="3.78425">
        <ele>1324.69</ele>
        <time>2023-09-12T10:06:50Z</time>
      </trkpt>
      <trkpt lat="44.52105" lon="3.78443">
        <ele>1327.69</ele>
        <time>2023-09-12T10:07:10Z</time>
      </trkpt>
      <trkpt lat="44.52093" lon="3.78465">
        <ele>1329.69</ele>
        <time>2023-09-12T10:07:30Z</time>
      </trkpt>
      <trkpt lat="44.52082" lon="3.78488">
        <ele>1331.69</ele>
        <time>2023-09-12T10:07:50Z</time>
      </trkpt>
      <trkpt lat="44.52069" lon="3.78508">
        <ele>1335.69</ele>
        <time>2023-09-12T10:08:14Z</time>
      </trkpt>
      <trkpt lat="44.52052" lon="3.7852">
        <ele>1333.69</ele>
        <time>2023-09-12T10:08:34Z</time>
      </trkpt>
      <trkpt lat="44.52037" lon="3.78535">
        <ele>1340.69</ele>
        <time>2023-09-12T10:08:58Z</time>
      </trkpt>
      <trkpt lat="44.52021" lon="3.78552">
        <ele>1339.69</ele>
        <time>2023-09-12T10:09:18Z</time>
      </trkpt>
      <trkpt lat="44.52005" lon="3.78568">
        <ele>1346.69</ele>
        <time>2023-09-12T10:09:42Z</time>
      </trkpt>
      <trkpt lat="44.51988" lon="3.78587">
        <ele>1347.69</ele>
        <time>2023-09-12T10:10:02Z</time>
      </trkpt>
      <trkpt lat="44.51974" lon="3.78603">
        <ele>1345.69</ele>
        <time>2023-09-12T10:10:22Z</time>
      </trkpt>
      <trkpt lat="44.51956" lon="3.7862">
        <ele>1346.69</ele>
        <time>2023-09-12T10:10:42Z</time>
      </trkpt>
      <trkpt lat="44.51942" lon="3.78638">
        <ele>1349.69</ele>
        <time>2023-09-12T10:11:02Z</time>
      </trkpt>
      <trkpt lat="44.51924" lon="3.78652">
        <ele>1352.69</ele>
        <time>2023-09-12T10:11:22Z</time>
      </trkpt>
      <trkpt lat="44.51907" lon="3.78664">
        <ele>1357.69</ele>
        <time>2023-09-12T10:11:42Z</time>
      </trkpt>
      <trkpt lat="44.51886" lon="3.78669">
        <ele>1356.69</ele>
        <time>2023-09-12T10:12:02Z</time>
      </trkpt>
      <trkpt lat="44.51866" lon="3.78679">
        <ele>1362.69</ele>
        <time>2023-09-12T10:12:26Z</time>
      </trkpt>
      <trkpt lat="44.51847" lon="3.7868">
        <ele>1366.69</ele>
        <time>2023-09-12T10:12:42Z</time>
      </trkpt>
      <trkpt lat="44.51828" lon="3.78685">
        <ele>1368.69</ele>
        <time>2023-09-12T10:13:02Z</time>
      </trkpt>
      <trkpt lat="44.51809" lon="3.78683">
        <ele>1366.69</ele>
        <time>2023-09-12T10:13:22Z</time>
      </trkpt>
      <trkpt lat="44.51789" lon="3.7868">
        <ele>1366.69</ele>
        <time>2023-09-12T10:13:42Z</time>
      </trkpt>
      <trkpt lat="44.51771" lon="3.78672">
        <ele>1366.69</ele>
        <time>2023-09-12T10:13:58Z</time>
      </trkpt>
      <trkpt lat="44.51754" lon="3.78663">
        <ele>1366.69</ele>
        <time>2023-09-12T10:14:14Z</time>
      </trkpt>
      <trkpt lat="44.51735" lon="3.78656">
        <ele>1367.69</ele>
        <time>2023-09-12T10:14:34Z</time>
      </trkpt>
      <trkpt lat="44.51716" lon="3.78651">
        <ele>1368.69</ele>
        <time>2023-09-12T10:14:50Z</time>
      </trkpt>
      <trkpt lat="44.51698" lon="3.78638">
        <ele>1370.69</ele>
        <time>2023-09-12T10:15:10Z</time>
      </trkpt>
      <trkpt lat="44.51677" lon="3.78638">
        <ele>1372.69</ele>
        <time>2023-09-12T10:15:26Z</time>
      </trkpt>
      <trkpt lat="44.51655" lon="3.78637">
        <ele>1371.69</ele>
        <time>2023-09-12T10:15:42Z</time>
      </trkpt>
      <trkpt lat="44.51637" lon="3.78635">
        <ele>1371.69</ele>
        <time>2023-09-12T10:16:02Z</time>
      </trkpt>
      <trkpt lat="44.51616" lon="3.78632">
        <ele>1374.69</ele>
        <time>2023-09-12T10:16:22Z</time>
      </trkpt>
      <trkpt lat="44.51598" lon="3.78627">
        <ele>1373.69</ele>
        <time>2023-09-12T10:16:38Z</time>
      </trkpt>
      <trkpt lat="44.5158" lon="3.7862">
        <ele>1374.69</ele>
        <time>2023-09-12T10:16:58Z</time>
      </trkpt>
      <trkpt lat="44.5156" lon="3.78614">
        <ele>1373.69</ele>
        <time>2023-09-12T10:17:18Z</time>
      </trkpt>
      <trkpt lat="44.51541" lon="3.78607">
        <ele>1377.69</ele>
        <time>2023-09-12T10:17:34Z</time>
      </trkpt>
      <trkpt lat="44.51522" lon="3.78597">
        <ele>1376.69</ele>
        <time>2023-09-12T10:17:50Z</time>
      </trkpt>
      <trkpt lat="44.51516" lon="3.78571">
        <ele>1366.69</ele>
        <time>2023-09-12T10:21:06Z</time>
      </trkpt>
      <trkpt lat="44.51512" lon="3.78545">
        <ele>1364.69</ele>
        <time>2023-09-12T10:21:38Z</time>
      </trkpt>
      <trkpt lat="44.51501" lon="3.78523">
        <ele>1366.69</ele>
        <time>2023-09-12T10:21:54Z</time>
      </trkpt>
      <trkpt lat="44.51493" lon="3.78493">
        <ele>1367.69</ele>
        <time>2023-09-12T10:22:14Z</time>
      </trkpt>
      <trkpt lat="44.5149" lon="3.78467">
        <ele>1366.69</ele>
        <time>2023-09-12T10:22:34Z</time>
      </trkpt>
      <trkpt lat="44.51489" lon="3.78441">
        <ele>1361.69</ele>
        <time>2023-09-12T10:22:58Z</time>
      </trkpt>
      <trkpt lat="44.51488" lon="3.78416">
        <ele>1360.69</ele>
        <time>2023-09-12T10:23:22Z</time>
      </trkpt>
      <trkpt lat="44.51479" lon="3.78394">
        <ele>1360.69</ele>
        <time>2023-09-12T10:23:38Z</time>
      </trkpt>
      <trkpt lat="44.51475" lon="3.78369">
        <ele>1355.69</ele>
        <time>2023-09-12T10:23:58Z</time>
      </trkpt>
      <trkpt lat="44.51473" lon="3.78343">
        <ele>1349.69</ele>
        <time>2023-09-12T10:24:18Z</time>
      </trkpt>
      <trkpt lat="44.51463" lon="3.78316">
        <ele>1345.69</ele>
        <time>2023-09-12T10:24:42Z</time>
      </trkpt>
      <trkpt lat="44.51458" lon="3.78291">
        <ele>1339.69</ele>
        <time>2023-09-12T10:25:02Z</time>
      </trkpt>
      <trkpt lat="44.51449" lon="3.78266">
        <ele>1333.69</ele>
        <time>2023-09-12T10:25:26Z</time>
      </trkpt>
      <trkpt lat="44.51438" lon="3.78243">
        <ele>1326.69</ele>
        <time>2023-09-12T10:25:47Z</time>
      </trkpt>
      <trkpt lat="44.5142" lon="3.78232">
        <ele>1325.69</ele>
        <time>2023-09-12T10:26:03Z</time>
      </trkpt>
      <trkpt lat="44.51401" lon="3.78219">
        <ele>1324.69</ele>
        <time>2023-09-12T10:26:27Z</time>
      </trkpt>
      <trkpt lat="44.5138" lon="3.78206">
        <ele>1323.69</ele>
        <time>2023-09-12T10:26:47Z</time>
      </trkpt>
      <trkpt lat="44.51363" lon="3.78196">
        <ele>1322.69</ele>
        <time>2023-09-12T10:27:03Z</time>
      </trkpt>
      <trkpt lat="44.51347" lon="3.78184">
        <ele>1320.69</ele>
        <time>2023-09-12T10:27:19Z</time>
      </trkpt>
      <trkpt lat="44.51331" lon="3.78172">
        <ele>1322.69</ele>
        <time>2023-09-12T10:27:35Z</time>
      </trkpt>
      <trkpt lat="44.51311" lon="3.78157">
        <ele>1323.69</ele>
        <time>2023-09-12T10:27:55Z</time>
      </trkpt>
      <trkpt lat="44.51292" lon="3.78143">
        <ele>1324.69</ele>
        <time>2023-09-12T10:28:15Z</time>
      </trkpt>
      <trkpt lat="44.51275" lon="3.78132">
        <ele>1323.69</ele>
        <time>2023-09-12T10:28:31Z</time>
      </trkpt>
      <trkpt lat="44.51258" lon="3.78116">
        <ele>1322.69</ele>
        <time>2023-09-12T10:28:51Z</time>
      </trkpt>
      <trkpt lat="44.51242" lon="3.78095">
        <ele>1324.69</ele>
        <time>2023-09-12T10:29:11Z</time>
      </trkpt>
      <trkpt lat="44.51225" lon="3.78075">
        <ele>1323.69</ele>
        <time>2023-09-12T10:29:31Z</time>
      </trkpt>
      <trkpt lat="44.51208" lon="3.78055">
        <ele>1320.69</ele>
        <time>2023-09-12T10:29:51Z</time>
      </trkpt>
      <trkpt lat="44.51193" lon="3.78037">
        <ele>1319.69</ele>
        <time>2023-09-12T10:30:07Z</time>
      </trkpt>
      <trkpt lat="44.51179" lon="3.78019">
        <ele>1319.69</ele>
        <time>2023-09-12T10:30:23Z</time>
      </trkpt>
      <trkpt lat="44.51165" lon="3.78002">
        <ele>1316.69</ele>
        <time>2023-09-12T10:30:39Z</time>
      </trkpt>
      <trkpt lat="44.51151" lon="3.77982">
        <ele>1312.69</ele>
        <time>2023-09-12T10:30:55Z</time>
      </trkpt>
      <trkpt lat="44.51134" lon="3.77968">
        <ele>1311.69</ele>
        <time>2023-09-12T10:31:11Z</time>
      </trkpt>
      <trkpt lat="44.51117" lon="3.77955">
        <ele>1313.69</ele>
        <time>2023-09-12T10:31:27Z</time>
      </trkpt>
      <trkpt lat="44.51097" lon="3.77949">
        <ele>1314.69</ele>
        <time>2023-09-12T10:31:47Z</time>
      </trkpt>
      <trkpt lat="44.51081" lon="3.77925">
        <ele>1308.69</ele>
        <time>2023-09-12T10:32:07Z</time>
      </trkpt>
      <trkpt lat="44.51073" lon="3.77902">
        <ele>1307.69</ele>
        <time>2023-09-12T10:32:31Z</time>
      </trkpt>
      <trkpt lat="44.5106" lon="3.7788">
        <ele>1309.69</ele>
        <time>2023-09-12T10:32:47Z</time>
      </trkpt>
      <trkpt lat="44.51052" lon="3.77857">
        <ele>1309.69</ele>
        <time>2023-09-12T10:33:07Z</time>
      </trkpt>
      <trkpt lat="44.5104" lon="3.77837">
        <ele>1308.69</ele>
        <time>2023-09-12T10:33:27Z</time>
      </trkpt>
      <trkpt lat="44.51027" lon="3.77812">
        <ele>1309.69</ele>
        <time>2023-09-12T10:33:51Z</time>
      </trkpt>
      <trkpt lat="44.51014" lon="3.77792">
        <ele>1305.69</ele>
        <time>2023-09-12T10:34:07Z</time>
      </trkpt>
      <trkpt lat="44.51005" lon="3.77769">
        <ele>1304.69</ele>
        <time>2023-09-12T10:34:39Z</time>
      </trkpt>
      <trkpt lat="44.51024" lon="3.77772">
        <ele>1301.69</ele>
        <time>2023-09-12T10:34:59Z</time>
      </trkpt>
      <trkpt lat="44.51045" lon="3.7777">
        <ele>1301.69</ele>
        <time>2023-09-12T10:35:19Z</time>
      </trkpt>
      <trkpt lat="44.51066" lon="3.77768">
        <ele>1297.69</ele>
        <time>2023-09-12T10:35:43Z</time>
      </trkpt>
      <trkpt lat="44.51087" lon="3.77765">
        <ele>1297.69</ele>
        <time>2023-09-12T10:36:07Z</time>
      </trkpt>
      <trkpt lat="44.51109" lon="3.77764">
        <ele>1298.69</ele>
        <time>2023-09-12T10:36:23Z</time>
      </trkpt>
      <trkpt lat="44.51127" lon="3.77763">
        <ele>1299.69</ele>
        <time>2023-09-12T10:36:39Z</time>
      </trkpt>
      <trkpt lat="44.51147" lon="3.77768">
        <ele>1299.69</ele>
        <time>2023-09-12T10:36:59Z</time>
      </trkpt>
      <trkpt lat="44.51166" lon="3.7777">
        <ele>1295.69</ele>
        <time>2023-09-12T10:37:15Z</time>
      </trkpt>
      <trkpt lat="44.51186" lon="3.77774">
        <ele>1291.69</ele>
        <time>2023-09-12T10:37:35Z</time>
      </trkpt>
      <trkpt lat="44.51206" lon="3.77778">
        <ele>1283.69</ele>
        <time>2023-09-12T10:38:05Z</time>
      </trkpt>
      <trkpt lat="44.51226" lon="3.77778">
        <ele>1283.69</ele>
        <time>2023-09-12T10:39:02Z</time>
      </trkpt>
      <trkpt lat="44.51246" lon="3.77781">
        <ele>1281.69</ele>
        <time>2023-09-12T10:39:26Z</time>
      </trkpt>
      <trkpt lat="44.51266" lon="3.77782">
        <ele>1278.69</ele>
        <time>2023-09-12T10:39:46Z</time>
      </trkpt>
      <trkpt lat="44.51284" lon="3.77791">
        <ele>1280.69</ele>
        <time>2023-09-12T10:40:06Z</time>
      </trkpt>
      <trkpt lat="44.51297" lon="3.7781">
        <ele>1272.69</ele>
        <time>2023-09-12T10:40:50Z</time>
      </trkpt>
      <trkpt lat="44.51283" lon="3.77795">
        <ele>1267.69</ele>
        <time>2023-09-12T11:26:09Z</time>
      </trkpt>
      <trkpt lat="44.51273" lon="3.77771">
        <ele>1263.69</ele>
        <time>2023-09-12T11:27:17Z</time>
      </trkpt>
      <trkpt lat="44.51269" lon="3.77746">
        <ele>1259.69</ele>
        <time>2023-09-12T11:27:45Z</time>
      </trkpt>
      <trkpt lat="44.51267" lon="3.77718">
        <ele>1259.69</ele>
        <time>2023-09-12T11:28:17Z</time>
      </trkpt>
      <trkpt lat="44.5126" lon="3.77694">
        <ele>1255.69</ele>
        <time>2023-09-12T11:28:45Z</time>
      </trkpt>
      <trkpt lat="44.51248" lon="3.77672">
        <ele>1251.69</ele>
        <time>2023-09-12T11:29:09Z</time>
      </trkpt>
      <trkpt lat="44.5123" lon="3.77658">
        <ele>1248.69</ele>
        <time>2023-09-12T11:29:33Z</time>
      </trkpt>
      <trkpt lat="44.51214" lon="3.77637">
        <ele>1249.69</ele>
        <time>2023-09-12T11:30:01Z</time>
      </trkpt>
      <trkpt lat="44.512" lon="3.77618">
        <ele>1249.69</ele>
        <time>2023-09-12T11:30:21Z</time>
      </trkpt>
      <trkpt lat="44.51185" lon="3.77601">
        <ele>1246.69</ele>
        <time>2023-09-12T11:30:45Z</time>
      </trkpt>
      <trkpt lat="44.51172" lon="3.77583">
        <ele>1244.69</ele>
        <time>2023-09-12T11:31:09Z</time>
      </trkpt>
      <trkpt lat="44.51157" lon="3.7756">
        <ele>1242.69</ele>
        <time>2023-09-12T11:31:33Z</time>
      </trkpt>
      <trkpt lat="44.5114" lon="3.77543">
        <ele>1238.69</ele>
        <time>2023-09-12T11:31:49Z</time>
      </trkpt>
      <trkpt lat="44.51124" lon="3.77533">
        <ele>1239.69</ele>
        <time>2023-09-12T11:32:05Z</time>
      </trkpt>
      <trkpt lat="44.51104" lon="3.77523">
        <ele>1241.69</ele>
        <time>2023-09-12T11:32:25Z</time>
      </trkpt>
      <trkpt lat="44.51084" lon="3.77514">
        <ele>1237.69</ele>
        <time>2023-09-12T11:32:45Z</time>
      </trkpt>
      <trkpt lat="44.51064" lon="3.77507">
        <ele>1236.69</ele>
        <time>2023-09-12T11:33:05Z</time>
      </trkpt>
      <trkpt lat="44.51045" lon="3.77496">
        <ele>1234.69</ele>
        <time>2023-09-12T11:33:25Z</time>
      </trkpt>
      <trkpt lat="44.51026" lon="3.77489">
        <ele>1233.69</ele>
        <time>2023-09-12T11:33:45Z</time>
      </trkpt>
      <trkpt lat="44.51009" lon="3.77475">
        <ele>1233.69</ele>
        <time>2023-09-12T11:34:14Z</time>
      </trkpt>
      <trkpt lat="44.50995" lon="3.77458">
        <ele>1230.69</ele>
        <time>2023-09-12T11:34:34Z</time>
      </trkpt>
      <trkpt lat="44.50982" lon="3.77434">
        <ele>1231.69</ele>
        <time>2023-09-12T11:34:58Z</time>
      </trkpt>
      <trkpt lat="44.5097" lon="3.77411">
        <ele>1229.69</ele>
        <time>2023-09-12T11:35:18Z</time>
      </trkpt>
      <trkpt lat="44.50964" lon="3.77381">
        <ele>1226.69</ele>
        <time>2023-09-12T11:35:42Z</time>
      </trkpt>
      <trkpt lat="44.50963" lon="3.7735">
        <ele>1228.69</ele>
        <time>2023-09-12T11:36:06Z</time>
      </trkpt>
      <trkpt lat="44.50963" lon="3.77322">
        <ele>1231.69</ele>
        <time>2023-09-12T11:36:26Z</time>
      </trkpt>
      <trkpt lat="44.50962" lon="3.77294">
        <ele>1229.69</ele>
        <time>2023-09-12T11:36:46Z</time>
      </trkpt>
      <trkpt lat="44.50956" lon="3.77266">
        <ele>1228.69</ele>
        <time>2023-09-12T11:37:06Z</time>
      </trkpt>
      <trkpt lat="44.5095" lon="3.77239">
        <ele>1227.69</ele>
        <time>2023-09-12T11:37:26Z</time>
      </trkpt>
      <trkpt lat="44.50945" lon="3.77209">
        <ele>1224.69</ele>
        <time>2023-09-12T11:37:46Z</time>
      </trkpt>
      <trkpt lat="44.50936" lon="3.77187">
        <ele>1219.69</ele>
        <time>2023-09-12T11:38:02Z</time>
      </trkpt>
      <trkpt lat="44.50928" lon="3.77163">
        <ele>1218.69</ele>
        <time>2023-09-12T11:38:18Z</time>
      </trkpt>
      <trkpt lat="44.5092" lon="3.77139">
        <ele>1216.69</ele>
        <time>2023-09-12T11:38:34Z</time>
      </trkpt>
      <trkpt lat="44.50907" lon="3.77117">
        <ele>1216.69</ele>
        <time>2023-09-12T11:38:50Z</time>
      </trkpt>
      <trkpt lat="44.50899" lon="3.77094">
        <ele>1211.69</ele>
        <time>2023-09-12T11:39:10Z</time>
      </trkpt>
      <trkpt lat="44.50887" lon="3.77075">
        <ele>1209.69</ele>
        <time>2023-09-12T11:39:26Z</time>
      </trkpt>
      <trkpt lat="44.50875" lon="3.77054">
        <ele>1208.69</ele>
        <time>2023-09-12T11:39:46Z</time>
      </trkpt>
      <trkpt lat="44.50867" lon="3.7703">
        <ele>1208.69</ele>
        <time>2023-09-12T11:40:06Z</time>
      </trkpt>
      <trkpt lat="44.50852" lon="3.77012">
        <ele>1205.69</ele>
        <time>2023-09-12T11:40:22Z</time>
      </trkpt>
      <trkpt lat="44.50834" lon="3.76992">
        <ele>1202.69</ele>
        <time>2023-09-12T11:40:42Z</time>
      </trkpt>
      <trkpt lat="44.50816" lon="3.76979">
        <ele>1201.69</ele>
        <time>2023-09-12T11:41:02Z</time>
      </trkpt>
      <trkpt lat="44.50799" lon="3.76973">
        <ele>1199.69</ele>
        <time>2023-09-12T11:41:18Z</time>
      </trkpt>
      <trkpt lat="44.50779" lon="3.76961">
        <ele>1196.69</ele>
        <time>2023-09-12T11:41:38Z</time>
      </trkpt>
      <trkpt lat="44.50759" lon="3.7695">
        <ele>1196.69</ele>
        <time>2023-09-12T11:42:02Z</time>
      </trkpt>
      <trkpt lat="44.5074" lon="3.7694">
        <ele>1195.69</ele>
        <time>2023-09-12T11:42:18Z</time>
      </trkpt>
      <trkpt lat="44.50723" lon="3.76928">
        <ele>1194.69</ele>
        <time>2023-09-12T11:42:34Z</time>
      </trkpt>
      <trkpt lat="44.50704" lon="3.76917">
        <ele>1191.69</ele>
        <time>2023-09-12T11:42:54Z</time>
      </trkpt>
      <trkpt lat="44.50683" lon="3.76905">
        <ele>1186.69</ele>
        <time>2023-09-12T11:43:14Z</time>
      </trkpt>
      <trkpt lat="44.50662" lon="3.76894">
        <ele>1184.69</ele>
        <time>2023-09-12T11:43:34Z</time>
      </trkpt>
      <trkpt lat="44.5064" lon="3.7689">
        <ele>1182.69</ele>
        <time>2023-09-12T11:43:54Z</time>
      </trkpt>
      <trkpt lat="44.50621" lon="3.76883">
        <ele>1178.69</ele>
        <time>2023-09-12T11:44:14Z</time>
      </trkpt>
      <trkpt lat="44.50603" lon="3.76874">
        <ele>1177.69</ele>
        <time>2023-09-12T11:44:34Z</time>
      </trkpt>
      <trkpt lat="44.50585" lon="3.76868">
        <ele>1174.69</ele>
        <time>2023-09-12T11:44:54Z</time>
      </trkpt>
      <trkpt lat="44.50563" lon="3.76867">
        <ele>1169.69</ele>
        <time>2023-09-12T11:45:22Z</time>
      </trkpt>
      <trkpt lat="44.50544" lon="3.76866">
        <ele>1169.69</ele>
        <time>2023-09-12T11:45:38Z</time>
      </trkpt>
      <trkpt lat="44.50525" lon="3.76862">
        <ele>1171.69</ele>
        <time>2023-09-12T11:45:54Z</time>
      </trkpt>
      <trkpt lat="44.50508" lon="3.76857">
        <ele>1171.69</ele>
        <time>2023-09-12T11:47:10Z</time>
      </trkpt>
      <trkpt lat="44.50487" lon="3.76848">
        <ele>1170.69</ele>
        <time>2023-09-12T11:47:30Z</time>
      </trkpt>
      <trkpt lat="44.50469" lon="3.76836">
        <ele>1169.69</ele>
        <time>2023-09-12T11:47:50Z</time>
      </trkpt>
      <trkpt lat="44.50451" lon="3.76826">
        <ele>1173.69</ele>
        <time>2023-09-12T11:48:10Z</time>
      </trkpt>
      <trkpt lat="44.50431" lon="3.76817">
        <ele>1172.69</ele>
        <time>2023-09-12T11:48:46Z</time>
      </trkpt>
      <trkpt lat="44.50413" lon="3.76803">
        <ele>1168.69</ele>
        <time>2023-09-12T11:49:06Z</time>
      </trkpt>
      <trkpt lat="44.50395" lon="3.76795">
        <ele>1164.69</ele>
        <time>2023-09-12T11:49:30Z</time>
      </trkpt>
      <trkpt lat="44.50379" lon="3.76781">
        <ele>1164.69</ele>
        <time>2023-09-12T11:49:50Z</time>
      </trkpt>
      <trkpt lat="44.50362" lon="3.76769">
        <ele>1161.69</ele>
        <time>2023-09-12T11:50:06Z</time>
      </trkpt>
      <trkpt lat="44.50341" lon="3.76759">
        <ele>1159.69</ele>
        <time>2023-09-12T11:50:22Z</time>
      </trkpt>
      <trkpt lat="44.50321" lon="3.7675">
        <ele>1158.69</ele>
        <time>2023-09-12T11:50:38Z</time>
      </trkpt>
      <trkpt lat="44.50301" lon="3.7675">
        <ele>1156.69</ele>
        <time>2023-09-12T11:50:54Z</time>
      </trkpt>
      <trkpt lat="44.50282" lon="3.76745">
        <ele>1153.69</ele>
        <time>2023-09-12T11:51:14Z</time>
      </trkpt>
      <trkpt lat="44.50262" lon="3.76741">
        <ele>1152.69</ele>
        <time>2023-09-12T11:51:30Z</time>
      </trkpt>
      <trkpt lat="44.50242" lon="3.76739">
        <ele>1155.69</ele>
        <time>2023-09-12T11:51:46Z</time>
      </trkpt>
      <trkpt lat="44.50218" lon="3.76729">
        <ele>1156.69</ele>
        <time>2023-09-12T11:52:10Z</time>
      </trkpt>
      <trkpt lat="44.50199" lon="3.76718">
        <ele>1154.69</ele>
        <time>2023-09-12T11:52:34Z</time>
      </trkpt>
      <trkpt lat="44.50186" lon="3.76699">
        <ele>1152.69</ele>
        <time>2023-09-12T11:52:58Z</time>
      </trkpt>
      <trkpt lat="44.5017" lon="3.76682">
        <ele>1151.69</ele>
        <time>2023-09-12T11:53:14Z</time>
      </trkpt>
      <trkpt lat="44.50153" lon="3.76667">
        <ele>1150.69</ele>
        <time>2023-09-12T11:53:34Z</time>
      </trkpt>
      <trkpt lat="44.50133" lon="3.76656">
        <ele>1148.69</ele>
        <time>2023-09-12T11:53:50Z</time>
      </trkpt>
      <trkpt lat="44.50112" lon="3.76652">
        <ele>1145.69</ele>
        <time>2023-09-12T11:54:06Z</time>
      </trkpt>
      <trkpt lat="44.50094" lon="3.7665">
        <ele>1147.69</ele>
        <time>2023-09-12T11:54:22Z</time>
      </trkpt>
      <trkpt lat="44.50073" lon="3.76643">
        <ele>1152.69</ele>
        <time>2023-09-12T11:54:46Z</time>
      </trkpt>
      <trkpt lat="44.50053" lon="3.76637">
        <ele>1154.69</ele>
        <time>2023-09-12T11:55:06Z</time>
      </trkpt>
      <trkpt lat="44.50031" lon="3.76636">
        <ele>1153.69</ele>
        <time>2023-09-12T11:55:22Z</time>
      </trkpt>
      <trkpt lat="44.5001" lon="3.76635">
        <ele>1152.69</ele>
        <time>2023-09-12T11:55:46Z</time>
      </trkpt>
      <trkpt lat="44.4999" lon="3.76631">
        <ele>1155.69</ele>
        <time>2023-09-12T11:56:06Z</time>
      </trkpt>
      <trkpt lat="44.49969" lon="3.76631">
        <ele>1160.69</ele>
        <time>2023-09-12T11:56:30Z</time>
      </trkpt>
      <trkpt lat="44.49947" lon="3.76629">
        <ele>1164.69</ele>
        <time>2023-09-12T11:56:50Z</time>
      </trkpt>
      <trkpt lat="44.49927" lon="3.76628">
        <ele>1167.69</ele>
        <time>2023-09-12T11:57:10Z</time>
      </trkpt>
      <trkpt lat="44.49906" lon="3.76626">
        <ele>1166.69</ele>
        <time>2023-09-12T11:57:30Z</time>
      </trkpt>
      <trkpt lat="44.49886" lon="3.7663">
        <ele>1164.69</ele>
        <time>2023-09-12T11:57:50Z</time>
      </trkpt>
      <trkpt lat="44.49867" lon="3.76636">
        <ele>1165.69</ele>
        <time>2023-09-12T11:58:06Z</time>
      </trkpt>
      <trkpt lat="44.49849" lon="3.76639">
        <ele>1166.69</ele>
        <time>2023-09-12T11:58:26Z</time>
      </trkpt>
      <trkpt lat="44.49826" lon="3.76643">
        <ele>1168.69</ele>
        <time>2023-09-12T11:58:46Z</time>
      </trkpt>
      <trkpt lat="44.49805" lon="3.76653">
        <ele>1169.69</ele>
        <time>2023-09-12T11:59:06Z</time>
      </trkpt>
      <trkpt lat="44.49784" lon="3.76656">
        <ele>1170.69</ele>
        <time>2023-09-12T11:59:30Z</time>
      </trkpt>
      <trkpt lat="44.49765" lon="3.76657">
        <ele>1172.69</ele>
        <time>2023-09-12T11:59:50Z</time>
      </trkpt>
      <trkpt lat="44.49745" lon="3.76657">
        <ele>1176.69</ele>
        <time>2023-09-12T12:00:10Z</time>
      </trkpt>
      <trkpt lat="44.49727" lon="3.76653">
        <ele>1179.69</ele>
        <time>2023-09-12T12:00:30Z</time>
      </trkpt>
      <trkpt lat="44.49707" lon="3.76643">
        <ele>1183.69</ele>
        <time>2023-09-12T12:00:54Z</time>
      </trkpt>
      <trkpt lat="44.49716" lon="3.76618">
        <ele>1186.69</ele>
        <time>2023-09-12T12:01:47Z</time>
      </trkpt>
      <trkpt lat="44.49733" lon="3.76604">
        <ele>1187.69</ele>
        <time>2023-09-12T12:02:07Z</time>
      </trkpt>
      <trkpt lat="44.4975" lon="3.76583">
        <ele>1184.69</ele>
        <time>2023-09-12T12:02:27Z</time>
      </trkpt>
      <trkpt lat="44.49763" lon="3.76565">
        <ele>1185.69</ele>
        <time>2023-09-12T12:02:43Z</time>
      </trkpt>
      <trkpt lat="44.49777" lon="3.76548">
        <ele>1184.69</ele>
        <time>2023-09-12T12:02:59Z</time>
      </trkpt>
      <trkpt lat="44.49788" lon="3.76523">
        <ele>1184.69</ele>
        <time>2023-09-12T12:03:19Z</time>
      </trkpt>
      <trkpt lat="44.49795" lon="3.76495">
        <ele>1187.69</ele>
        <time>2023-09-12T12:03:39Z</time>
      </trkpt>
      <trkpt lat="44.49805" lon="3.76472">
        <ele>1193.69</ele>
        <time>2023-09-12T12:04:03Z</time>
      </trkpt>
      <trkpt lat="44.49818" lon="3.76454">
        <ele>1194.69</ele>
        <time>2023-09-12T12:04:23Z</time>
      </trkpt>
      <trkpt lat="44.49831" lon="3.76436">
        <ele>1194.69</ele>
        <time>2023-09-12T12:04:39Z</time>
      </trkpt>
      <trkpt lat="44.49847" lon="3.76417">
        <ele>1194.69</ele>
        <time>2023-09-12T12:04:59Z</time>
      </trkpt>
      <trkpt lat="44.4986" lon="3.76396">
        <ele>1196.69</ele>
        <time>2023-09-12T12:05:19Z</time>
      </trkpt>
      <trkpt lat="44.49871" lon="3.76371">
        <ele>1195.69</ele>
        <time>2023-09-12T12:05:39Z</time>
      </trkpt>
      <trkpt lat="44.4988" lon="3.76349">
        <ele>1195.69</ele>
        <time>2023-09-12T12:05:55Z</time>
      </trkpt>
      <trkpt lat="44.49886" lon="3.76322">
        <ele>1197.69</ele>
        <time>2023-09-12T12:06:15Z</time>
      </trkpt>
      <trkpt lat="44.49891" lon="3.76291">
        <ele>1199.69</ele>
        <time>2023-09-12T12:06:35Z</time>
      </trkpt>
      <trkpt lat="44.49897" lon="3.76264">
        <ele>1201.69</ele>
        <time>2023-09-12T12:06:55Z</time>
      </trkpt>
      <trkpt lat="44.499" lon="3.76239">
        <ele>1205.69</ele>
        <time>2023-09-12T12:07:11Z</time>
      </trkpt>
      <trkpt lat="44.49901" lon="3.76211">
        <ele>1209.69</ele>
        <time>2023-09-12T12:07:31Z</time>
      </trkpt>
      <trkpt lat="44.49898" lon="3.76184">
        <ele>1213.69</ele>
        <time>2023-09-12T12:07:51Z</time>
      </trkpt>
      <trkpt lat="44.49897" lon="3.76158">
        <ele>1213.69</ele>
        <time>2023-09-12T12:08:07Z</time>
      </trkpt>
      <trkpt lat="44.49896" lon="3.76129">
        <ele>1215.69</ele>
        <time>2023-09-12T12:08:27Z</time>
      </trkpt>
      <trkpt lat="44.49896" lon="3.76101">
        <ele>1211.69</ele>
        <time>2023-09-12T12:08:43Z</time>
      </trkpt>
      <trkpt lat="44.49895" lon="3.76075">
        <ele>1206.69</ele>
        <time>2023-09-12T12:08:59Z</time>
      </trkpt>
      <trkpt lat="44.49899" lon="3.76044">
        <ele>1205.69</ele>
        <time>2023-09-12T12:09:19Z</time>
      </trkpt>
      <trkpt lat="44.49897" lon="3.76016">
        <ele>1204.69</ele>
        <time>2023-09-12T12:09:35Z</time>
      </trkpt>
      <trkpt lat="44.49898" lon="3.75989">
        <ele>1203.69</ele>
        <time>2023-09-12T12:10:35Z</time>
      </trkpt>
      <trkpt lat="44.49903" lon="3.75962">
        <ele>1201.69</ele>
        <time>2023-09-12T12:11:27Z</time>
      </trkpt>
      <trkpt lat="44.49912" lon="3.75939">
        <ele>1200.69</ele>
        <time>2023-09-12T12:11:43Z</time>
      </trkpt>
      <trkpt lat="44.49922" lon="3.75918">
        <ele>1199.69</ele>
        <time>2023-09-12T12:11:59Z</time>
      </trkpt>
      <trkpt lat="44.49938" lon="3.75896">
        <ele>1198.69</ele>
        <time>2023-09-12T12:12:19Z</time>
      </trkpt>
      <trkpt lat="44.49956" lon="3.75878">
        <ele>1197.69</ele>
        <time>2023-09-12T12:12:39Z</time>
      </trkpt>
      <trkpt lat="44.49977" lon="3.75866">
        <ele>1196.69</ele>
        <time>2023-09-12T12:12:59Z</time>
      </trkpt>
      <trkpt lat="44.49996" lon="3.7587">
        <ele>1195.69</ele>
        <time>2023-09-12T12:13:19Z</time>
      </trkpt>
      <trkpt lat="44.50018" lon="3.75871">
        <ele>1194.69</ele>
        <time>2023-09-12T12:13:39Z</time>
      </trkpt>
      <trkpt lat="44.50037" lon="3.75862">
        <ele>1193.69</ele>
        <time>2023-09-12T12:13:55Z</time>
      </trkpt>
      <trkpt lat="44.50052" lon="3.75842">
        <ele>1191.69</ele>
        <time>2023-09-12T12:14:11Z</time>
      </trkpt>
      <trkpt lat="44.50065" lon="3.75816">
        <ele>1189.69</ele>
        <time>2023-09-12T12:14:31Z</time>
      </trkpt>
      <trkpt lat="44.5007" lon="3.75788">
        <ele>1188.69</ele>
        <time>2023-09-12T12:14:51Z</time>
      </trkpt>
      <trkpt lat="44.50076" lon="3.75764">
        <ele>1188.69</ele>
        <time>2023-09-12T12:15:07Z</time>
      </trkpt>
      <trkpt lat="44.50082" lon="3.75734">
        <ele>1185.69</ele>
        <time>2023-09-12T12:15:27Z</time>
      </trkpt>
      <trkpt lat="44.50088" lon="3.75704">
        <ele>1187.69</ele>
        <time>2023-09-12T12:15:47Z</time>
      </trkpt>
      <trkpt lat="44.50093" lon="3.75678">
        <ele>1185.69</ele>
        <time>2023-09-12T12:16:27Z</time>
      </trkpt>
      <trkpt lat="44.50083" lon="3.75655">
        <ele>1181.69</ele>
        <time>2023-09-12T12:16:51Z</time>
      </trkpt>
      <trkpt lat="44.50066" lon="3.75639">
        <ele>1178.69</ele>
        <time>2023-09-12T12:17:11Z</time>
      </trkpt>
      <trkpt lat="44.50064" lon="3.7561">
        <ele>1176.69</ele>
        <time>2023-09-12T12:17:39Z</time>
      </trkpt>
    </trkseg>
  </trk>
</gpx>